<?xml version="1.0" encoding="UTF-8" standalone="no" ?>
<gpx xmlns="http://www.topografix.com/GPX/1/1" xmlns:xsi="http://www.w3.org/2001/XMLSchema-instance" xsi:schemaLocation="http://www.topografix.com/GPX/1/1 http://www.topografix.com/GPX/1/1/gpx.xsd" version="1.1" creator="VisuGPX - https://www.visugpx.com">
  <metadata>
    <name>83-M-Bras                </name>
    <desc><![CDATA[83-M-Bras : la barre de Travet]]></desc>
  </metadata>
  <trk>
    <name><![CDATA[2017-12-13-M-bras]]></name>
    <trkseg>
      <trkpt lat="43.46723" lon="5.96207">
        <ele>285.9</ele>
        <time>2017-12-13T08:21:56Z</time>
      </trkpt>
      <trkpt lat="43.46723" lon="5.96207">
        <ele>285.9</ele>
        <time>2017-12-13T08:21:57Z</time>
      </trkpt>
      <trkpt lat="43.46714" lon="5.96208">
        <ele>286.1</ele>
        <time>2017-12-13T08:23:05Z</time>
      </trkpt>
      <trkpt lat="43.46712" lon="5.96221">
        <ele>286.9</ele>
        <time>2017-12-13T08:23:49Z</time>
      </trkpt>
      <trkpt lat="43.46704" lon="5.96229">
        <ele>287</ele>
        <time>2017-12-13T08:25:03Z</time>
      </trkpt>
      <trkpt lat="43.46698" lon="5.96239">
        <ele>287</ele>
        <time>2017-12-13T08:25:14Z</time>
      </trkpt>
      <trkpt lat="43.46692" lon="5.96249">
        <ele>287</ele>
        <time>2017-12-13T08:25:23Z</time>
      </trkpt>
      <trkpt lat="43.46686" lon="5.96259">
        <ele>287</ele>
        <time>2017-12-13T08:25:32Z</time>
      </trkpt>
      <trkpt lat="43.4668" lon="5.96269">
        <ele>287.1</ele>
        <time>2017-12-13T08:25:43Z</time>
      </trkpt>
      <trkpt lat="43.46674" lon="5.9628">
        <ele>287.3</ele>
        <time>2017-12-13T08:25:53Z</time>
      </trkpt>
      <trkpt lat="43.46673" lon="5.96293">
        <ele>287.3</ele>
        <time>2017-12-13T08:26:04Z</time>
      </trkpt>
      <trkpt lat="43.46681" lon="5.96298">
        <ele>287.4</ele>
        <time>2017-12-13T08:26:16Z</time>
      </trkpt>
      <trkpt lat="43.4669" lon="5.96304">
        <ele>287.8</ele>
        <time>2017-12-13T08:26:25Z</time>
      </trkpt>
      <trkpt lat="43.46696" lon="5.96313">
        <ele>288.2</ele>
        <time>2017-12-13T08:26:34Z</time>
      </trkpt>
      <trkpt lat="43.46702" lon="5.96324">
        <ele>289.4</ele>
        <time>2017-12-13T08:26:46Z</time>
      </trkpt>
      <trkpt lat="43.467" lon="5.96336">
        <ele>292.4</ele>
        <time>2017-12-13T08:27:09Z</time>
      </trkpt>
      <trkpt lat="43.46695" lon="5.96347">
        <ele>295.3</ele>
        <time>2017-12-13T08:27:27Z</time>
      </trkpt>
      <trkpt lat="43.46692" lon="5.96359">
        <ele>297.9</ele>
        <time>2017-12-13T08:27:48Z</time>
      </trkpt>
      <trkpt lat="43.46688" lon="5.96371">
        <ele>299.9</ele>
        <time>2017-12-13T08:28:01Z</time>
      </trkpt>
      <trkpt lat="43.46683" lon="5.96382">
        <ele>302.1</ele>
        <time>2017-12-13T08:28:17Z</time>
      </trkpt>
      <trkpt lat="43.46683" lon="5.96395">
        <ele>303.5</ele>
        <time>2017-12-13T08:28:27Z</time>
      </trkpt>
      <trkpt lat="43.46682" lon="5.96408">
        <ele>304.7</ele>
        <time>2017-12-13T08:28:38Z</time>
      </trkpt>
      <trkpt lat="43.46676" lon="5.96418">
        <ele>305.9</ele>
        <time>2017-12-13T08:28:50Z</time>
      </trkpt>
      <trkpt lat="43.46671" lon="5.96428">
        <ele>306.9</ele>
        <time>2017-12-13T08:29:00Z</time>
      </trkpt>
      <trkpt lat="43.46666" lon="5.96438">
        <ele>307.7</ele>
        <time>2017-12-13T08:29:10Z</time>
      </trkpt>
      <trkpt lat="43.46661" lon="5.96449">
        <ele>308.5</ele>
        <time>2017-12-13T08:29:19Z</time>
      </trkpt>
      <trkpt lat="43.46653" lon="5.96457">
        <ele>309.3</ele>
        <time>2017-12-13T08:29:28Z</time>
      </trkpt>
      <trkpt lat="43.46645" lon="5.96462">
        <ele>309.9</ele>
        <time>2017-12-13T08:29:37Z</time>
      </trkpt>
      <trkpt lat="43.46639" lon="5.96472">
        <ele>310.5</ele>
        <time>2017-12-13T08:29:50Z</time>
      </trkpt>
      <trkpt lat="43.46631" lon="5.96481">
        <ele>310.9</ele>
        <time>2017-12-13T08:30:00Z</time>
      </trkpt>
      <trkpt lat="43.46626" lon="5.96492">
        <ele>311.5</ele>
        <time>2017-12-13T08:30:12Z</time>
      </trkpt>
      <trkpt lat="43.46624" lon="5.96505">
        <ele>312.5</ele>
        <time>2017-12-13T08:30:25Z</time>
      </trkpt>
      <trkpt lat="43.4662" lon="5.96517">
        <ele>314</ele>
        <time>2017-12-13T08:30:37Z</time>
      </trkpt>
      <trkpt lat="43.46619" lon="5.9653">
        <ele>315.7</ele>
        <time>2017-12-13T08:30:50Z</time>
      </trkpt>
      <trkpt lat="43.46616" lon="5.96542">
        <ele>317.7</ele>
        <time>2017-12-13T08:31:15Z</time>
      </trkpt>
      <trkpt lat="43.46612" lon="5.96554">
        <ele>320.2</ele>
        <time>2017-12-13T08:31:38Z</time>
      </trkpt>
      <trkpt lat="43.46613" lon="5.96566">
        <ele>322.3</ele>
        <time>2017-12-13T08:31:54Z</time>
      </trkpt>
      <trkpt lat="43.46616" lon="5.96579">
        <ele>324.4</ele>
        <time>2017-12-13T08:32:10Z</time>
      </trkpt>
      <trkpt lat="43.46624" lon="5.96587">
        <ele>325.6</ele>
        <time>2017-12-13T08:32:25Z</time>
      </trkpt>
      <trkpt lat="43.4663" lon="5.96598">
        <ele>327.6</ele>
        <time>2017-12-13T08:32:41Z</time>
      </trkpt>
      <trkpt lat="43.46633" lon="5.96611">
        <ele>330.1</ele>
        <time>2017-12-13T08:33:01Z</time>
      </trkpt>
      <trkpt lat="43.46637" lon="5.96622">
        <ele>331.8</ele>
        <time>2017-12-13T08:33:14Z</time>
      </trkpt>
      <trkpt lat="43.46645" lon="5.96626">
        <ele>333.2</ele>
        <time>2017-12-13T08:33:29Z</time>
      </trkpt>
      <trkpt lat="43.46649" lon="5.96639">
        <ele>335.1</ele>
        <time>2017-12-13T08:33:47Z</time>
      </trkpt>
      <trkpt lat="43.46656" lon="5.96646">
        <ele>337</ele>
        <time>2017-12-13T08:34:13Z</time>
      </trkpt>
      <trkpt lat="43.4666" lon="5.96658">
        <ele>338.3</ele>
        <time>2017-12-13T08:34:25Z</time>
      </trkpt>
      <trkpt lat="43.46667" lon="5.96666">
        <ele>339.6</ele>
        <time>2017-12-13T08:34:37Z</time>
      </trkpt>
      <trkpt lat="43.46674" lon="5.96675">
        <ele>341.3</ele>
        <time>2017-12-13T08:34:52Z</time>
      </trkpt>
      <trkpt lat="43.46678" lon="5.96686">
        <ele>344.3</ele>
        <time>2017-12-13T08:35:16Z</time>
      </trkpt>
      <trkpt lat="43.46681" lon="5.96698">
        <ele>346</ele>
        <time>2017-12-13T08:35:30Z</time>
      </trkpt>
      <trkpt lat="43.46683" lon="5.9671">
        <ele>347.9</ele>
        <time>2017-12-13T08:35:47Z</time>
      </trkpt>
      <trkpt lat="43.46687" lon="5.96722">
        <ele>348.9</ele>
        <time>2017-12-13T08:36:00Z</time>
      </trkpt>
      <trkpt lat="43.4669" lon="5.96734">
        <ele>350.5</ele>
        <time>2017-12-13T08:36:22Z</time>
      </trkpt>
      <trkpt lat="43.46696" lon="5.96743">
        <ele>352.6</ele>
        <time>2017-12-13T08:36:42Z</time>
      </trkpt>
      <trkpt lat="43.467" lon="5.96755">
        <ele>353.7</ele>
        <time>2017-12-13T08:36:53Z</time>
      </trkpt>
      <trkpt lat="43.46705" lon="5.96766">
        <ele>355.2</ele>
        <time>2017-12-13T08:37:08Z</time>
      </trkpt>
      <trkpt lat="43.46709" lon="5.96777">
        <ele>356.1</ele>
        <time>2017-12-13T08:37:21Z</time>
      </trkpt>
      <trkpt lat="43.46714" lon="5.96789">
        <ele>357.4</ele>
        <time>2017-12-13T08:37:35Z</time>
      </trkpt>
      <trkpt lat="43.46718" lon="5.968">
        <ele>358.8</ele>
        <time>2017-12-13T08:37:49Z</time>
      </trkpt>
      <trkpt lat="43.4672" lon="5.96812">
        <ele>361.2</ele>
        <time>2017-12-13T08:38:07Z</time>
      </trkpt>
      <trkpt lat="43.46726" lon="5.96822">
        <ele>363</ele>
        <time>2017-12-13T08:38:25Z</time>
      </trkpt>
      <trkpt lat="43.46718" lon="5.96826">
        <ele>366.4</ele>
        <time>2017-12-13T08:39:23Z</time>
      </trkpt>
      <trkpt lat="43.46711" lon="5.96834">
        <ele>368.3</ele>
        <time>2017-12-13T08:39:40Z</time>
      </trkpt>
      <trkpt lat="43.46704" lon="5.96843">
        <ele>371.2</ele>
        <time>2017-12-13T08:40:02Z</time>
      </trkpt>
      <trkpt lat="43.46698" lon="5.96852">
        <ele>373.2</ele>
        <time>2017-12-13T08:40:21Z</time>
      </trkpt>
      <trkpt lat="43.46689" lon="5.96858">
        <ele>374.6</ele>
        <time>2017-12-13T08:41:16Z</time>
      </trkpt>
      <trkpt lat="43.46686" lon="5.9687">
        <ele>375.7</ele>
        <time>2017-12-13T08:41:27Z</time>
      </trkpt>
      <trkpt lat="43.46679" lon="5.9688">
        <ele>377.5</ele>
        <time>2017-12-13T08:41:42Z</time>
      </trkpt>
      <trkpt lat="43.46675" lon="5.96891">
        <ele>379.8</ele>
        <time>2017-12-13T08:41:57Z</time>
      </trkpt>
      <trkpt lat="43.46674" lon="5.96904">
        <ele>382</ele>
        <time>2017-12-13T08:42:11Z</time>
      </trkpt>
      <trkpt lat="43.4667" lon="5.96916">
        <ele>383.9</ele>
        <time>2017-12-13T08:42:25Z</time>
      </trkpt>
      <trkpt lat="43.46671" lon="5.96929">
        <ele>385.2</ele>
        <time>2017-12-13T08:42:36Z</time>
      </trkpt>
      <trkpt lat="43.46662" lon="5.96936">
        <ele>387.8</ele>
        <time>2017-12-13T08:42:59Z</time>
      </trkpt>
      <trkpt lat="43.46655" lon="5.96943">
        <ele>389.4</ele>
        <time>2017-12-13T08:43:13Z</time>
      </trkpt>
      <trkpt lat="43.46649" lon="5.96952">
        <ele>391.1</ele>
        <time>2017-12-13T08:43:26Z</time>
      </trkpt>
      <trkpt lat="43.46644" lon="5.96964">
        <ele>393.6</ele>
        <time>2017-12-13T08:44:05Z</time>
      </trkpt>
      <trkpt lat="43.46646" lon="5.96976">
        <ele>393.8</ele>
        <time>2017-12-13T08:44:18Z</time>
      </trkpt>
      <trkpt lat="43.46642" lon="5.96988">
        <ele>394.3</ele>
        <time>2017-12-13T08:44:46Z</time>
      </trkpt>
      <trkpt lat="43.46637" lon="5.96998">
        <ele>395.5</ele>
        <time>2017-12-13T08:45:04Z</time>
      </trkpt>
      <trkpt lat="43.46635" lon="5.97011">
        <ele>396.7</ele>
        <time>2017-12-13T08:45:17Z</time>
      </trkpt>
      <trkpt lat="43.46634" lon="5.97023">
        <ele>397.9</ele>
        <time>2017-12-13T08:45:31Z</time>
      </trkpt>
      <trkpt lat="43.46629" lon="5.97034">
        <ele>399</ele>
        <time>2017-12-13T08:45:45Z</time>
      </trkpt>
      <trkpt lat="43.46621" lon="5.9704">
        <ele>400.5</ele>
        <time>2017-12-13T08:47:33Z</time>
      </trkpt>
      <trkpt lat="43.46616" lon="5.97051">
        <ele>400.7</ele>
        <time>2017-12-13T08:48:18Z</time>
      </trkpt>
      <trkpt lat="43.46607" lon="5.97057">
        <ele>400.8</ele>
        <time>2017-12-13T08:48:29Z</time>
      </trkpt>
      <trkpt lat="43.46599" lon="5.97063">
        <ele>400.9</ele>
        <time>2017-12-13T08:48:39Z</time>
      </trkpt>
      <trkpt lat="43.46597" lon="5.97076">
        <ele>401.2</ele>
        <time>2017-12-13T08:48:50Z</time>
      </trkpt>
      <trkpt lat="43.46597" lon="5.97088">
        <ele>402</ele>
        <time>2017-12-13T08:49:06Z</time>
      </trkpt>
      <trkpt lat="43.46598" lon="5.97101">
        <ele>402.9</ele>
        <time>2017-12-13T08:49:17Z</time>
      </trkpt>
      <trkpt lat="43.46596" lon="5.97113">
        <ele>405.2</ele>
        <time>2017-12-13T08:49:35Z</time>
      </trkpt>
      <trkpt lat="43.46594" lon="5.97126">
        <ele>407.4</ele>
        <time>2017-12-13T08:49:54Z</time>
      </trkpt>
      <trkpt lat="43.46598" lon="5.97137">
        <ele>408.9</ele>
        <time>2017-12-13T08:50:07Z</time>
      </trkpt>
      <trkpt lat="43.46601" lon="5.97149">
        <ele>410.7</ele>
        <time>2017-12-13T08:50:29Z</time>
      </trkpt>
      <trkpt lat="43.46605" lon="5.97161">
        <ele>412</ele>
        <time>2017-12-13T08:50:42Z</time>
      </trkpt>
      <trkpt lat="43.46612" lon="5.97169">
        <ele>414.9</ele>
        <time>2017-12-13T08:51:15Z</time>
      </trkpt>
      <trkpt lat="43.46619" lon="5.97179">
        <ele>416.8</ele>
        <time>2017-12-13T08:51:32Z</time>
      </trkpt>
      <trkpt lat="43.46619" lon="5.97192">
        <ele>419.6</ele>
        <time>2017-12-13T08:51:55Z</time>
      </trkpt>
      <trkpt lat="43.46621" lon="5.97204">
        <ele>423.2</ele>
        <time>2017-12-13T08:52:28Z</time>
      </trkpt>
      <trkpt lat="43.46624" lon="5.97216">
        <ele>425.7</ele>
        <time>2017-12-13T08:52:47Z</time>
      </trkpt>
      <trkpt lat="43.46629" lon="5.97226">
        <ele>427.5</ele>
        <time>2017-12-13T08:53:02Z</time>
      </trkpt>
      <trkpt lat="43.46633" lon="5.97238">
        <ele>429.7</ele>
        <time>2017-12-13T08:53:22Z</time>
      </trkpt>
      <trkpt lat="43.46633" lon="5.9725">
        <ele>432.2</ele>
        <time>2017-12-13T08:53:42Z</time>
      </trkpt>
      <trkpt lat="43.46635" lon="5.97263">
        <ele>435.2</ele>
        <time>2017-12-13T08:54:03Z</time>
      </trkpt>
      <trkpt lat="43.46638" lon="5.97275">
        <ele>437.5</ele>
        <time>2017-12-13T08:54:20Z</time>
      </trkpt>
      <trkpt lat="43.46642" lon="5.97286">
        <ele>439.6</ele>
        <time>2017-12-13T08:54:36Z</time>
      </trkpt>
      <trkpt lat="43.46648" lon="5.97295">
        <ele>443.6</ele>
        <time>2017-12-13T08:55:32Z</time>
      </trkpt>
      <trkpt lat="43.46656" lon="5.97302">
        <ele>444.5</ele>
        <time>2017-12-13T09:04:33Z</time>
      </trkpt>
      <trkpt lat="43.46665" lon="5.97305">
        <ele>444.5</ele>
        <time>2017-12-13T09:04:53Z</time>
      </trkpt>
      <trkpt lat="43.46669" lon="5.97316">
        <ele>446.4</ele>
        <time>2017-12-13T09:05:39Z</time>
      </trkpt>
      <trkpt lat="43.46666" lon="5.97327">
        <ele>449.3</ele>
        <time>2017-12-13T09:06:03Z</time>
      </trkpt>
      <trkpt lat="43.46668" lon="5.9734">
        <ele>450.8</ele>
        <time>2017-12-13T09:06:14Z</time>
      </trkpt>
      <trkpt lat="43.46667" lon="5.97352">
        <ele>453.1</ele>
        <time>2017-12-13T09:06:32Z</time>
      </trkpt>
      <trkpt lat="43.4667" lon="5.97365">
        <ele>454.4</ele>
        <time>2017-12-13T09:06:44Z</time>
      </trkpt>
      <trkpt lat="43.46671" lon="5.97378">
        <ele>456</ele>
        <time>2017-12-13T09:06:56Z</time>
      </trkpt>
      <trkpt lat="43.46676" lon="5.97389">
        <ele>457.8</ele>
        <time>2017-12-13T09:07:11Z</time>
      </trkpt>
      <trkpt lat="43.4668" lon="5.974">
        <ele>459.9</ele>
        <time>2017-12-13T09:07:28Z</time>
      </trkpt>
      <trkpt lat="43.46685" lon="5.97412">
        <ele>461.3</ele>
        <time>2017-12-13T09:07:41Z</time>
      </trkpt>
      <trkpt lat="43.4669" lon="5.97422">
        <ele>463.1</ele>
        <time>2017-12-13T09:07:54Z</time>
      </trkpt>
      <trkpt lat="43.46692" lon="5.97435">
        <ele>465.5</ele>
        <time>2017-12-13T09:08:10Z</time>
      </trkpt>
      <trkpt lat="43.46698" lon="5.97444">
        <ele>468.2</ele>
        <time>2017-12-13T09:08:27Z</time>
      </trkpt>
      <trkpt lat="43.46703" lon="5.97454">
        <ele>471.6</ele>
        <time>2017-12-13T09:08:52Z</time>
      </trkpt>
      <trkpt lat="43.46706" lon="5.97467">
        <ele>474.3</ele>
        <time>2017-12-13T09:09:11Z</time>
      </trkpt>
      <trkpt lat="43.4671" lon="5.97478">
        <ele>477.7</ele>
        <time>2017-12-13T09:09:35Z</time>
      </trkpt>
      <trkpt lat="43.46714" lon="5.97489">
        <ele>480.2</ele>
        <time>2017-12-13T09:10:03Z</time>
      </trkpt>
      <trkpt lat="43.46718" lon="5.97501">
        <ele>484.5</ele>
        <time>2017-12-13T09:10:45Z</time>
      </trkpt>
      <trkpt lat="43.46719" lon="5.97514">
        <ele>487.5</ele>
        <time>2017-12-13T09:11:13Z</time>
      </trkpt>
      <trkpt lat="43.46721" lon="5.97526">
        <ele>489.3</ele>
        <time>2017-12-13T09:11:31Z</time>
      </trkpt>
      <trkpt lat="43.46725" lon="5.97538">
        <ele>491.5</ele>
        <time>2017-12-13T09:11:48Z</time>
      </trkpt>
      <trkpt lat="43.46731" lon="5.97548">
        <ele>493.8</ele>
        <time>2017-12-13T09:12:08Z</time>
      </trkpt>
      <trkpt lat="43.46736" lon="5.97557">
        <ele>497.4</ele>
        <time>2017-12-13T09:12:43Z</time>
      </trkpt>
      <trkpt lat="43.46744" lon="5.97552">
        <ele>498.4</ele>
        <time>2017-12-13T09:13:36Z</time>
      </trkpt>
      <trkpt lat="43.46748" lon="5.97563">
        <ele>500.4</ele>
        <time>2017-12-13T09:14:06Z</time>
      </trkpt>
      <trkpt lat="43.46752" lon="5.97574">
        <ele>501.7</ele>
        <time>2017-12-13T09:14:20Z</time>
      </trkpt>
      <trkpt lat="43.46753" lon="5.97587">
        <ele>504.7</ele>
        <time>2017-12-13T09:14:43Z</time>
      </trkpt>
      <trkpt lat="43.46759" lon="5.97597">
        <ele>508.1</ele>
        <time>2017-12-13T09:15:17Z</time>
      </trkpt>
      <trkpt lat="43.4676" lon="5.9761">
        <ele>510</ele>
        <time>2017-12-13T09:15:38Z</time>
      </trkpt>
      <trkpt lat="43.46762" lon="5.97622">
        <ele>513.7</ele>
        <time>2017-12-13T09:16:07Z</time>
      </trkpt>
      <trkpt lat="43.4676" lon="5.97634">
        <ele>516.7</ele>
        <time>2017-12-13T09:16:32Z</time>
      </trkpt>
      <trkpt lat="43.46768" lon="5.97642">
        <ele>517.7</ele>
        <time>2017-12-13T09:18:10Z</time>
      </trkpt>
      <trkpt lat="43.46776" lon="5.97637">
        <ele>518</ele>
        <time>2017-12-13T09:18:39Z</time>
      </trkpt>
      <trkpt lat="43.46767" lon="5.97638">
        <ele>518.1</ele>
        <time>2017-12-13T09:19:05Z</time>
      </trkpt>
      <trkpt lat="43.46773" lon="5.97648">
        <ele>519.2</ele>
        <time>2017-12-13T09:21:13Z</time>
      </trkpt>
      <trkpt lat="43.46776" lon="5.9766">
        <ele>520.3</ele>
        <time>2017-12-13T09:21:30Z</time>
      </trkpt>
      <trkpt lat="43.4678" lon="5.97672">
        <ele>522.2</ele>
        <time>2017-12-13T09:21:43Z</time>
      </trkpt>
      <trkpt lat="43.46783" lon="5.97683">
        <ele>524.4</ele>
        <time>2017-12-13T09:22:11Z</time>
      </trkpt>
      <trkpt lat="43.46789" lon="5.97692">
        <ele>525.6</ele>
        <time>2017-12-13T09:22:25Z</time>
      </trkpt>
      <trkpt lat="43.46797" lon="5.97699">
        <ele>527.5</ele>
        <time>2017-12-13T09:22:48Z</time>
      </trkpt>
      <trkpt lat="43.46804" lon="5.97707">
        <ele>530.4</ele>
        <time>2017-12-13T09:23:16Z</time>
      </trkpt>
      <trkpt lat="43.4681" lon="5.97717">
        <ele>532.2</ele>
        <time>2017-12-13T09:23:30Z</time>
      </trkpt>
      <trkpt lat="43.46816" lon="5.97727">
        <ele>533.7</ele>
        <time>2017-12-13T09:23:50Z</time>
      </trkpt>
      <trkpt lat="43.4682" lon="5.97739">
        <ele>535</ele>
        <time>2017-12-13T09:24:05Z</time>
      </trkpt>
      <trkpt lat="43.46822" lon="5.97752">
        <ele>536.6</ele>
        <time>2017-12-13T09:24:29Z</time>
      </trkpt>
      <trkpt lat="43.46826" lon="5.97763">
        <ele>537.8</ele>
        <time>2017-12-13T09:24:46Z</time>
      </trkpt>
      <trkpt lat="43.4683" lon="5.97774">
        <ele>538.8</ele>
        <time>2017-12-13T09:24:59Z</time>
      </trkpt>
      <trkpt lat="43.4683" lon="5.97787">
        <ele>540.6</ele>
        <time>2017-12-13T09:25:47Z</time>
      </trkpt>
      <trkpt lat="43.46834" lon="5.978">
        <ele>540.6</ele>
        <time>2017-12-13T09:25:59Z</time>
      </trkpt>
      <trkpt lat="43.46835" lon="5.97812">
        <ele>540.4</ele>
        <time>2017-12-13T09:26:10Z</time>
      </trkpt>
      <trkpt lat="43.46841" lon="5.97822">
        <ele>538.9</ele>
        <time>2017-12-13T09:26:26Z</time>
      </trkpt>
      <trkpt lat="43.46847" lon="5.97832">
        <ele>536.7</ele>
        <time>2017-12-13T09:26:45Z</time>
      </trkpt>
      <trkpt lat="43.46852" lon="5.97842">
        <ele>536</ele>
        <time>2017-12-13T09:27:04Z</time>
      </trkpt>
      <trkpt lat="43.4686" lon="5.97851">
        <ele>536.4</ele>
        <time>2017-12-13T09:27:19Z</time>
      </trkpt>
      <trkpt lat="43.46866" lon="5.97859">
        <ele>537.6</ele>
        <time>2017-12-13T09:27:34Z</time>
      </trkpt>
      <trkpt lat="43.46873" lon="5.97867">
        <ele>538.6</ele>
        <time>2017-12-13T09:27:47Z</time>
      </trkpt>
      <trkpt lat="43.46876" lon="5.97879">
        <ele>539.9</ele>
        <time>2017-12-13T09:28:04Z</time>
      </trkpt>
      <trkpt lat="43.46879" lon="5.97892">
        <ele>542.1</ele>
        <time>2017-12-13T09:28:32Z</time>
      </trkpt>
      <trkpt lat="43.46887" lon="5.97899">
        <ele>543.3</ele>
        <time>2017-12-13T09:28:45Z</time>
      </trkpt>
      <trkpt lat="43.46891" lon="5.9791">
        <ele>547.2</ele>
        <time>2017-12-13T09:29:27Z</time>
      </trkpt>
      <trkpt lat="43.46899" lon="5.97916">
        <ele>549</ele>
        <time>2017-12-13T09:29:47Z</time>
      </trkpt>
      <trkpt lat="43.46907" lon="5.97923">
        <ele>549.8</ele>
        <time>2017-12-13T09:30:00Z</time>
      </trkpt>
      <trkpt lat="43.46912" lon="5.97933">
        <ele>550.5</ele>
        <time>2017-12-13T09:30:14Z</time>
      </trkpt>
      <trkpt lat="43.46918" lon="5.97944">
        <ele>551.4</ele>
        <time>2017-12-13T09:30:26Z</time>
      </trkpt>
      <trkpt lat="43.46923" lon="5.97955">
        <ele>551.9</ele>
        <time>2017-12-13T09:30:37Z</time>
      </trkpt>
      <trkpt lat="43.46929" lon="5.97965">
        <ele>552.1</ele>
        <time>2017-12-13T09:30:46Z</time>
      </trkpt>
      <trkpt lat="43.46936" lon="5.97972">
        <ele>551.6</ele>
        <time>2017-12-13T09:30:58Z</time>
      </trkpt>
      <trkpt lat="43.4694" lon="5.97984">
        <ele>551.3</ele>
        <time>2017-12-13T09:31:07Z</time>
      </trkpt>
      <trkpt lat="43.46943" lon="5.97996">
        <ele>551.1</ele>
        <time>2017-12-13T09:31:17Z</time>
      </trkpt>
      <trkpt lat="43.46944" lon="5.98009">
        <ele>550.6</ele>
        <time>2017-12-13T09:31:28Z</time>
      </trkpt>
      <trkpt lat="43.46943" lon="5.98021">
        <ele>551.8</ele>
        <time>2017-12-13T09:32:15Z</time>
      </trkpt>
      <trkpt lat="43.46945" lon="5.98034">
        <ele>553.4</ele>
        <time>2017-12-13T09:32:29Z</time>
      </trkpt>
      <trkpt lat="43.4695" lon="5.98044">
        <ele>556.3</ele>
        <time>2017-12-13T09:33:29Z</time>
      </trkpt>
      <trkpt lat="43.46958" lon="5.98052">
        <ele>557.9</ele>
        <time>2017-12-13T09:34:16Z</time>
      </trkpt>
      <trkpt lat="43.46961" lon="5.98065">
        <ele>558.4</ele>
        <time>2017-12-13T09:34:28Z</time>
      </trkpt>
      <trkpt lat="43.46961" lon="5.98077">
        <ele>558.4</ele>
        <time>2017-12-13T09:34:52Z</time>
      </trkpt>
      <trkpt lat="43.46963" lon="5.9809">
        <ele>558.1</ele>
        <time>2017-12-13T09:35:04Z</time>
      </trkpt>
      <trkpt lat="43.4696" lon="5.98102">
        <ele>559.1</ele>
        <time>2017-12-13T09:35:58Z</time>
      </trkpt>
      <trkpt lat="43.46964" lon="5.98114">
        <ele>560.5</ele>
        <time>2017-12-13T09:36:12Z</time>
      </trkpt>
      <trkpt lat="43.46968" lon="5.98125">
        <ele>561.7</ele>
        <time>2017-12-13T09:36:25Z</time>
      </trkpt>
      <trkpt lat="43.46972" lon="5.98137">
        <ele>563.7</ele>
        <time>2017-12-13T09:37:01Z</time>
      </trkpt>
      <trkpt lat="43.46968" lon="5.98148">
        <ele>564.8</ele>
        <time>2017-12-13T09:37:17Z</time>
      </trkpt>
      <trkpt lat="43.46971" lon="5.9816">
        <ele>567.1</ele>
        <time>2017-12-13T09:37:36Z</time>
      </trkpt>
      <trkpt lat="43.46976" lon="5.98171">
        <ele>569.7</ele>
        <time>2017-12-13T09:37:54Z</time>
      </trkpt>
      <trkpt lat="43.46981" lon="5.98182">
        <ele>573.4</ele>
        <time>2017-12-13T09:38:19Z</time>
      </trkpt>
      <trkpt lat="43.46973" lon="5.98189">
        <ele>574.8</ele>
        <time>2017-12-13T09:39:12Z</time>
      </trkpt>
      <trkpt lat="43.46982" lon="5.98191">
        <ele>574.1</ele>
        <time>2017-12-13T09:42:27Z</time>
      </trkpt>
      <trkpt lat="43.46984" lon="5.98204">
        <ele>574.8</ele>
        <time>2017-12-13T09:42:45Z</time>
      </trkpt>
      <trkpt lat="43.46988" lon="5.98215">
        <ele>575.2</ele>
        <time>2017-12-13T09:43:01Z</time>
      </trkpt>
      <trkpt lat="43.46992" lon="5.98227">
        <ele>576.5</ele>
        <time>2017-12-13T09:45:41Z</time>
      </trkpt>
      <trkpt lat="43.47001" lon="5.98227">
        <ele>576.2</ele>
        <time>2017-12-13T09:46:22Z</time>
      </trkpt>
      <trkpt lat="43.47009" lon="5.98235">
        <ele>572.3</ele>
        <time>2017-12-13T09:47:19Z</time>
      </trkpt>
      <trkpt lat="43.47018" lon="5.98236">
        <ele>569.1</ele>
        <time>2017-12-13T09:47:49Z</time>
      </trkpt>
      <trkpt lat="43.47027" lon="5.98241">
        <ele>565.3</ele>
        <time>2017-12-13T09:48:11Z</time>
      </trkpt>
      <trkpt lat="43.47036" lon="5.98244">
        <ele>562.6</ele>
        <time>2017-12-13T09:48:35Z</time>
      </trkpt>
      <trkpt lat="43.47045" lon="5.98247">
        <ele>560.2</ele>
        <time>2017-12-13T09:48:53Z</time>
      </trkpt>
      <trkpt lat="43.47053" lon="5.98253">
        <ele>556.8</ele>
        <time>2017-12-13T09:49:21Z</time>
      </trkpt>
      <trkpt lat="43.4706" lon="5.98262">
        <ele>555.4</ele>
        <time>2017-12-13T09:49:40Z</time>
      </trkpt>
      <trkpt lat="43.47069" lon="5.98267">
        <ele>553.9</ele>
        <time>2017-12-13T09:49:52Z</time>
      </trkpt>
      <trkpt lat="43.47077" lon="5.98274">
        <ele>552.5</ele>
        <time>2017-12-13T09:50:04Z</time>
      </trkpt>
      <trkpt lat="43.47079" lon="5.98287">
        <ele>551.2</ele>
        <time>2017-12-13T09:50:16Z</time>
      </trkpt>
      <trkpt lat="43.47086" lon="5.98296">
        <ele>549.7</ele>
        <time>2017-12-13T09:50:27Z</time>
      </trkpt>
      <trkpt lat="43.47088" lon="5.98308">
        <ele>548</ele>
        <time>2017-12-13T09:50:44Z</time>
      </trkpt>
      <trkpt lat="43.47092" lon="5.9832">
        <ele>546.6</ele>
        <time>2017-12-13T09:50:59Z</time>
      </trkpt>
      <trkpt lat="43.47097" lon="5.98333">
        <ele>545.6</ele>
        <time>2017-12-13T09:51:09Z</time>
      </trkpt>
      <trkpt lat="43.47105" lon="5.9834">
        <ele>544.4</ele>
        <time>2017-12-13T09:51:19Z</time>
      </trkpt>
      <trkpt lat="43.4711" lon="5.98352">
        <ele>543.5</ele>
        <time>2017-12-13T09:51:29Z</time>
      </trkpt>
      <trkpt lat="43.47119" lon="5.98356">
        <ele>542.6</ele>
        <time>2017-12-13T09:51:40Z</time>
      </trkpt>
      <trkpt lat="43.47128" lon="5.98356">
        <ele>540.5</ele>
        <time>2017-12-13T09:51:54Z</time>
      </trkpt>
      <trkpt lat="43.47138" lon="5.98355">
        <ele>538.9</ele>
        <time>2017-12-13T09:52:06Z</time>
      </trkpt>
      <trkpt lat="43.47147" lon="5.98351">
        <ele>537.6</ele>
        <time>2017-12-13T09:52:20Z</time>
      </trkpt>
      <trkpt lat="43.47154" lon="5.98342">
        <ele>535.3</ele>
        <time>2017-12-13T09:52:36Z</time>
      </trkpt>
      <trkpt lat="43.47163" lon="5.98337">
        <ele>533</ele>
        <time>2017-12-13T09:52:53Z</time>
      </trkpt>
      <trkpt lat="43.47171" lon="5.9833">
        <ele>531.2</ele>
        <time>2017-12-13T09:53:06Z</time>
      </trkpt>
      <trkpt lat="43.47179" lon="5.98326">
        <ele>529</ele>
        <time>2017-12-13T09:53:21Z</time>
      </trkpt>
      <trkpt lat="43.47188" lon="5.9833">
        <ele>527.4</ele>
        <time>2017-12-13T09:53:38Z</time>
      </trkpt>
      <trkpt lat="43.47195" lon="5.98339">
        <ele>526.5</ele>
        <time>2017-12-13T09:53:49Z</time>
      </trkpt>
      <trkpt lat="43.47202" lon="5.98348">
        <ele>525.7</ele>
        <time>2017-12-13T09:54:01Z</time>
      </trkpt>
      <trkpt lat="43.47209" lon="5.98356">
        <ele>525.3</ele>
        <time>2017-12-13T09:54:13Z</time>
      </trkpt>
      <trkpt lat="43.47216" lon="5.98364">
        <ele>525.2</ele>
        <time>2017-12-13T09:54:23Z</time>
      </trkpt>
      <trkpt lat="43.47225" lon="5.98369">
        <ele>524.9</ele>
        <time>2017-12-13T09:54:34Z</time>
      </trkpt>
      <trkpt lat="43.47234" lon="5.98369">
        <ele>524.7</ele>
        <time>2017-12-13T09:54:45Z</time>
      </trkpt>
      <trkpt lat="43.47242" lon="5.98364">
        <ele>524.5</ele>
        <time>2017-12-13T09:54:53Z</time>
      </trkpt>
      <trkpt lat="43.47252" lon="5.98363">
        <ele>523.4</ele>
        <time>2017-12-13T09:55:23Z</time>
      </trkpt>
      <trkpt lat="43.47261" lon="5.98363">
        <ele>523.3</ele>
        <time>2017-12-13T09:55:36Z</time>
      </trkpt>
      <trkpt lat="43.4727" lon="5.98369">
        <ele>524.2</ele>
        <time>2017-12-13T09:55:51Z</time>
      </trkpt>
      <trkpt lat="43.47278" lon="5.98376">
        <ele>525.1</ele>
        <time>2017-12-13T09:56:03Z</time>
      </trkpt>
      <trkpt lat="43.47285" lon="5.98384">
        <ele>525.9</ele>
        <time>2017-12-13T09:56:13Z</time>
      </trkpt>
      <trkpt lat="43.47293" lon="5.98391">
        <ele>527</ele>
        <time>2017-12-13T09:56:25Z</time>
      </trkpt>
      <trkpt lat="43.47299" lon="5.98401">
        <ele>528.9</ele>
        <time>2017-12-13T09:56:42Z</time>
      </trkpt>
      <trkpt lat="43.47306" lon="5.98409">
        <ele>530.8</ele>
        <time>2017-12-13T09:56:56Z</time>
      </trkpt>
      <trkpt lat="43.47314" lon="5.98414">
        <ele>532.8</ele>
        <time>2017-12-13T09:57:10Z</time>
      </trkpt>
      <trkpt lat="43.47323" lon="5.9842">
        <ele>533.9</ele>
        <time>2017-12-13T09:57:21Z</time>
      </trkpt>
      <trkpt lat="43.47329" lon="5.9843">
        <ele>535.1</ele>
        <time>2017-12-13T09:57:33Z</time>
      </trkpt>
      <trkpt lat="43.47333" lon="5.98442">
        <ele>535.9</ele>
        <time>2017-12-13T09:57:45Z</time>
      </trkpt>
      <trkpt lat="43.47336" lon="5.98454">
        <ele>536</ele>
        <time>2017-12-13T09:57:55Z</time>
      </trkpt>
      <trkpt lat="43.47338" lon="5.98466">
        <ele>535.9</ele>
        <time>2017-12-13T09:58:06Z</time>
      </trkpt>
      <trkpt lat="43.47342" lon="5.98479">
        <ele>535.8</ele>
        <time>2017-12-13T09:58:17Z</time>
      </trkpt>
      <trkpt lat="43.47344" lon="5.98491">
        <ele>535.9</ele>
        <time>2017-12-13T09:58:27Z</time>
      </trkpt>
      <trkpt lat="43.47348" lon="5.98504">
        <ele>536.1</ele>
        <time>2017-12-13T09:58:38Z</time>
      </trkpt>
      <trkpt lat="43.47352" lon="5.98516">
        <ele>536.5</ele>
        <time>2017-12-13T09:58:49Z</time>
      </trkpt>
      <trkpt lat="43.47355" lon="5.98528">
        <ele>537.3</ele>
        <time>2017-12-13T09:59:01Z</time>
      </trkpt>
      <trkpt lat="43.47359" lon="5.9854">
        <ele>538</ele>
        <time>2017-12-13T09:59:12Z</time>
      </trkpt>
      <trkpt lat="43.47364" lon="5.9855">
        <ele>538.5</ele>
        <time>2017-12-13T09:59:22Z</time>
      </trkpt>
      <trkpt lat="43.47369" lon="5.98562">
        <ele>538.8</ele>
        <time>2017-12-13T09:59:32Z</time>
      </trkpt>
      <trkpt lat="43.47374" lon="5.98573">
        <ele>538.9</ele>
        <time>2017-12-13T09:59:42Z</time>
      </trkpt>
      <trkpt lat="43.47379" lon="5.98584">
        <ele>539.6</ele>
        <time>2017-12-13T09:59:55Z</time>
      </trkpt>
      <trkpt lat="43.47383" lon="5.98596">
        <ele>540.9</ele>
        <time>2017-12-13T10:00:10Z</time>
      </trkpt>
      <trkpt lat="43.47389" lon="5.98606">
        <ele>542.4</ele>
        <time>2017-12-13T10:00:24Z</time>
      </trkpt>
      <trkpt lat="43.47397" lon="5.98614">
        <ele>544.1</ele>
        <time>2017-12-13T10:00:36Z</time>
      </trkpt>
      <trkpt lat="43.47405" lon="5.98621">
        <ele>545.6</ele>
        <time>2017-12-13T10:00:49Z</time>
      </trkpt>
      <trkpt lat="43.47412" lon="5.9863">
        <ele>547.4</ele>
        <time>2017-12-13T10:01:03Z</time>
      </trkpt>
      <trkpt lat="43.47417" lon="5.98641">
        <ele>548.6</ele>
        <time>2017-12-13T10:01:15Z</time>
      </trkpt>
      <trkpt lat="43.47422" lon="5.98653">
        <ele>550.1</ele>
        <time>2017-12-13T10:01:28Z</time>
      </trkpt>
      <trkpt lat="43.47424" lon="5.98665">
        <ele>551.2</ele>
        <time>2017-12-13T10:01:39Z</time>
      </trkpt>
      <trkpt lat="43.47424" lon="5.98678">
        <ele>551.4</ele>
        <time>2017-12-13T10:01:52Z</time>
      </trkpt>
      <trkpt lat="43.47422" lon="5.9869">
        <ele>551.4</ele>
        <time>2017-12-13T10:02:01Z</time>
      </trkpt>
      <trkpt lat="43.47417" lon="5.98703">
        <ele>551.1</ele>
        <time>2017-12-13T10:02:11Z</time>
      </trkpt>
      <trkpt lat="43.47411" lon="5.98713">
        <ele>550.5</ele>
        <time>2017-12-13T10:02:20Z</time>
      </trkpt>
      <trkpt lat="43.47406" lon="5.98724">
        <ele>550</ele>
        <time>2017-12-13T10:02:29Z</time>
      </trkpt>
      <trkpt lat="43.47404" lon="5.98737">
        <ele>549.4</ele>
        <time>2017-12-13T10:02:38Z</time>
      </trkpt>
      <trkpt lat="43.47401" lon="5.9875">
        <ele>548.6</ele>
        <time>2017-12-13T10:02:48Z</time>
      </trkpt>
      <trkpt lat="43.47402" lon="5.98763">
        <ele>547.9</ele>
        <time>2017-12-13T10:02:56Z</time>
      </trkpt>
      <trkpt lat="43.47404" lon="5.98775">
        <ele>547.3</ele>
        <time>2017-12-13T10:03:04Z</time>
      </trkpt>
      <trkpt lat="43.47406" lon="5.98787">
        <ele>546.5</ele>
        <time>2017-12-13T10:03:13Z</time>
      </trkpt>
      <trkpt lat="43.47407" lon="5.988">
        <ele>546.3</ele>
        <time>2017-12-13T10:04:20Z</time>
      </trkpt>
      <trkpt lat="43.47403" lon="5.98812">
        <ele>546.5</ele>
        <time>2017-12-13T10:04:39Z</time>
      </trkpt>
      <trkpt lat="43.47401" lon="5.98824">
        <ele>545.9</ele>
        <time>2017-12-13T10:04:51Z</time>
      </trkpt>
      <trkpt lat="43.47395" lon="5.98833">
        <ele>545.5</ele>
        <time>2017-12-13T10:05:09Z</time>
      </trkpt>
      <trkpt lat="43.47389" lon="5.98843">
        <ele>545.3</ele>
        <time>2017-12-13T10:05:20Z</time>
      </trkpt>
      <trkpt lat="43.47383" lon="5.98854">
        <ele>544.7</ele>
        <time>2017-12-13T10:05:32Z</time>
      </trkpt>
      <trkpt lat="43.4738" lon="5.98866">
        <ele>544.2</ele>
        <time>2017-12-13T10:05:42Z</time>
      </trkpt>
      <trkpt lat="43.47376" lon="5.98877">
        <ele>543.8</ele>
        <time>2017-12-13T10:05:56Z</time>
      </trkpt>
      <trkpt lat="43.47371" lon="5.98888">
        <ele>543.3</ele>
        <time>2017-12-13T10:06:09Z</time>
      </trkpt>
      <trkpt lat="43.47367" lon="5.989">
        <ele>542.1</ele>
        <time>2017-12-13T10:06:22Z</time>
      </trkpt>
      <trkpt lat="43.47363" lon="5.98911">
        <ele>540.1</ele>
        <time>2017-12-13T10:06:45Z</time>
      </trkpt>
      <trkpt lat="43.47359" lon="5.98923">
        <ele>538.5</ele>
        <time>2017-12-13T10:07:02Z</time>
      </trkpt>
      <trkpt lat="43.4735" lon="5.98925">
        <ele>534.6</ele>
        <time>2017-12-13T10:07:44Z</time>
      </trkpt>
      <trkpt lat="43.47343" lon="5.98934">
        <ele>532.7</ele>
        <time>2017-12-13T10:08:00Z</time>
      </trkpt>
      <trkpt lat="43.47337" lon="5.98943">
        <ele>528.7</ele>
        <time>2017-12-13T10:08:35Z</time>
      </trkpt>
      <trkpt lat="43.47328" lon="5.98949">
        <ele>525.4</ele>
        <time>2017-12-13T10:08:58Z</time>
      </trkpt>
      <trkpt lat="43.47323" lon="5.98961">
        <ele>523.7</ele>
        <time>2017-12-13T10:09:15Z</time>
      </trkpt>
      <trkpt lat="43.4732" lon="5.98973">
        <ele>522.3</ele>
        <time>2017-12-13T10:09:29Z</time>
      </trkpt>
      <trkpt lat="43.47319" lon="5.98986">
        <ele>521</ele>
        <time>2017-12-13T10:09:42Z</time>
      </trkpt>
      <trkpt lat="43.47317" lon="5.98998">
        <ele>519.5</ele>
        <time>2017-12-13T10:09:53Z</time>
      </trkpt>
      <trkpt lat="43.47316" lon="5.99011">
        <ele>517.6</ele>
        <time>2017-12-13T10:10:08Z</time>
      </trkpt>
      <trkpt lat="43.47315" lon="5.99024">
        <ele>516.1</ele>
        <time>2017-12-13T10:10:24Z</time>
      </trkpt>
      <trkpt lat="43.47315" lon="5.99037">
        <ele>514.9</ele>
        <time>2017-12-13T10:10:38Z</time>
      </trkpt>
      <trkpt lat="43.47312" lon="5.99049">
        <ele>513.4</ele>
        <time>2017-12-13T10:11:04Z</time>
      </trkpt>
      <trkpt lat="43.47306" lon="5.99058">
        <ele>510.7</ele>
        <time>2017-12-13T10:11:33Z</time>
      </trkpt>
      <trkpt lat="43.47298" lon="5.99066">
        <ele>508.3</ele>
        <time>2017-12-13T10:12:27Z</time>
      </trkpt>
      <trkpt lat="43.47289" lon="5.9907">
        <ele>506.5</ele>
        <time>2017-12-13T10:12:40Z</time>
      </trkpt>
      <trkpt lat="43.47288" lon="5.99082">
        <ele>502.6</ele>
        <time>2017-12-13T10:13:36Z</time>
      </trkpt>
      <trkpt lat="43.47288" lon="5.99095">
        <ele>503.9</ele>
        <time>2017-12-13T10:15:54Z</time>
      </trkpt>
      <trkpt lat="43.47283" lon="5.99106">
        <ele>503.9</ele>
        <time>2017-12-13T10:16:04Z</time>
      </trkpt>
      <trkpt lat="43.47273" lon="5.99108">
        <ele>503.4</ele>
        <time>2017-12-13T10:16:13Z</time>
      </trkpt>
      <trkpt lat="43.47264" lon="5.99107">
        <ele>503.1</ele>
        <time>2017-12-13T10:16:20Z</time>
      </trkpt>
      <trkpt lat="43.47253" lon="5.99107">
        <ele>502.8</ele>
        <time>2017-12-13T10:16:28Z</time>
      </trkpt>
      <trkpt lat="43.47244" lon="5.99111">
        <ele>502.7</ele>
        <time>2017-12-13T10:16:37Z</time>
      </trkpt>
      <trkpt lat="43.47239" lon="5.99121">
        <ele>502.7</ele>
        <time>2017-12-13T10:16:50Z</time>
      </trkpt>
      <trkpt lat="43.4723" lon="5.99125">
        <ele>503.1</ele>
        <time>2017-12-13T10:17:00Z</time>
      </trkpt>
      <trkpt lat="43.47222" lon="5.99129">
        <ele>504.1</ele>
        <time>2017-12-13T10:17:12Z</time>
      </trkpt>
      <trkpt lat="43.47213" lon="5.99135">
        <ele>505.6</ele>
        <time>2017-12-13T10:17:25Z</time>
      </trkpt>
      <trkpt lat="43.47216" lon="5.99147">
        <ele>506.2</ele>
        <time>2017-12-13T10:17:33Z</time>
      </trkpt>
      <trkpt lat="43.4722" lon="5.99159">
        <ele>506.8</ele>
        <time>2017-12-13T10:17:39Z</time>
      </trkpt>
      <trkpt lat="43.47219" lon="5.99172">
        <ele>507.4</ele>
        <time>2017-12-13T10:17:47Z</time>
      </trkpt>
      <trkpt lat="43.4721" lon="5.99173">
        <ele>508.4</ele>
        <time>2017-12-13T10:18:05Z</time>
      </trkpt>
      <trkpt lat="43.47202" lon="5.99179">
        <ele>509.5</ele>
        <time>2017-12-13T10:18:16Z</time>
      </trkpt>
      <trkpt lat="43.47199" lon="5.99191">
        <ele>510.4</ele>
        <time>2017-12-13T10:18:25Z</time>
      </trkpt>
      <trkpt lat="43.47193" lon="5.99201">
        <ele>511.2</ele>
        <time>2017-12-13T10:18:35Z</time>
      </trkpt>
      <trkpt lat="43.47186" lon="5.99209">
        <ele>512.7</ele>
        <time>2017-12-13T10:18:48Z</time>
      </trkpt>
      <trkpt lat="43.47178" lon="5.99215">
        <ele>515.1</ele>
        <time>2017-12-13T10:19:09Z</time>
      </trkpt>
      <trkpt lat="43.47172" lon="5.99224">
        <ele>518.4</ele>
        <time>2017-12-13T10:19:31Z</time>
      </trkpt>
      <trkpt lat="43.47165" lon="5.99233">
        <ele>521</ele>
        <time>2017-12-13T10:20:00Z</time>
      </trkpt>
      <trkpt lat="43.47159" lon="5.99242">
        <ele>522.5</ele>
        <time>2017-12-13T10:20:21Z</time>
      </trkpt>
      <trkpt lat="43.47153" lon="5.99252">
        <ele>524.7</ele>
        <time>2017-12-13T10:20:41Z</time>
      </trkpt>
      <trkpt lat="43.47149" lon="5.99263">
        <ele>528</ele>
        <time>2017-12-13T10:21:05Z</time>
      </trkpt>
      <trkpt lat="43.47153" lon="5.99275">
        <ele>529.6</ele>
        <time>2017-12-13T10:21:18Z</time>
      </trkpt>
      <trkpt lat="43.47152" lon="5.99288">
        <ele>530.6</ele>
        <time>2017-12-13T10:21:40Z</time>
      </trkpt>
      <trkpt lat="43.47152" lon="5.993">
        <ele>531</ele>
        <time>2017-12-13T10:21:58Z</time>
      </trkpt>
      <trkpt lat="43.47152" lon="5.99313">
        <ele>531</ele>
        <time>2017-12-13T10:22:15Z</time>
      </trkpt>
      <trkpt lat="43.47149" lon="5.99325">
        <ele>531.6</ele>
        <time>2017-12-13T10:22:31Z</time>
      </trkpt>
      <trkpt lat="43.47145" lon="5.99337">
        <ele>534.8</ele>
        <time>2017-12-13T10:23:06Z</time>
      </trkpt>
      <trkpt lat="43.47139" lon="5.99347">
        <ele>539.1</ele>
        <time>2017-12-13T10:23:38Z</time>
      </trkpt>
      <trkpt lat="43.47133" lon="5.99356">
        <ele>542.1</ele>
        <time>2017-12-13T10:23:58Z</time>
      </trkpt>
      <trkpt lat="43.47127" lon="5.99367">
        <ele>545.6</ele>
        <time>2017-12-13T10:24:25Z</time>
      </trkpt>
      <trkpt lat="43.47126" lon="5.9938">
        <ele>546.7</ele>
        <time>2017-12-13T10:24:40Z</time>
      </trkpt>
      <trkpt lat="43.47122" lon="5.99391">
        <ele>547</ele>
        <time>2017-12-13T10:24:54Z</time>
      </trkpt>
      <trkpt lat="43.47125" lon="5.99403">
        <ele>547.2</ele>
        <time>2017-12-13T10:25:18Z</time>
      </trkpt>
      <trkpt lat="43.47126" lon="5.99416">
        <ele>547</ele>
        <time>2017-12-13T10:25:32Z</time>
      </trkpt>
      <trkpt lat="43.47125" lon="5.99429">
        <ele>546.5</ele>
        <time>2017-12-13T10:25:46Z</time>
      </trkpt>
      <trkpt lat="43.47124" lon="5.99442">
        <ele>546</ele>
        <time>2017-12-13T10:25:58Z</time>
      </trkpt>
      <trkpt lat="43.47123" lon="5.99455">
        <ele>545.5</ele>
        <time>2017-12-13T10:26:12Z</time>
      </trkpt>
      <trkpt lat="43.47122" lon="5.99467">
        <ele>545</ele>
        <time>2017-12-13T10:26:29Z</time>
      </trkpt>
      <trkpt lat="43.47123" lon="5.9948">
        <ele>544.3</ele>
        <time>2017-12-13T10:26:46Z</time>
      </trkpt>
      <trkpt lat="43.47125" lon="5.99493">
        <ele>544.1</ele>
        <time>2017-12-13T10:26:57Z</time>
      </trkpt>
      <trkpt lat="43.47126" lon="5.99506">
        <ele>543.7</ele>
        <time>2017-12-13T10:27:09Z</time>
      </trkpt>
      <trkpt lat="43.47132" lon="5.99515">
        <ele>543.2</ele>
        <time>2017-12-13T10:27:20Z</time>
      </trkpt>
      <trkpt lat="43.47133" lon="5.99529">
        <ele>542.6</ele>
        <time>2017-12-13T10:27:31Z</time>
      </trkpt>
      <trkpt lat="43.47139" lon="5.99537">
        <ele>541.9</ele>
        <time>2017-12-13T10:27:41Z</time>
      </trkpt>
      <trkpt lat="43.47143" lon="5.9955">
        <ele>541.4</ele>
        <time>2017-12-13T10:27:51Z</time>
      </trkpt>
      <trkpt lat="43.47148" lon="5.9956">
        <ele>540.5</ele>
        <time>2017-12-13T10:28:13Z</time>
      </trkpt>
      <trkpt lat="43.47157" lon="5.99565">
        <ele>540.4</ele>
        <time>2017-12-13T10:28:32Z</time>
      </trkpt>
      <trkpt lat="43.47162" lon="5.99575">
        <ele>540</ele>
        <time>2017-12-13T10:28:50Z</time>
      </trkpt>
      <trkpt lat="43.4717" lon="5.99581">
        <ele>539.7</ele>
        <time>2017-12-13T10:29:01Z</time>
      </trkpt>
      <trkpt lat="43.47177" lon="5.99591">
        <ele>539.5</ele>
        <time>2017-12-13T10:29:12Z</time>
      </trkpt>
      <trkpt lat="43.47178" lon="5.99604">
        <ele>539.3</ele>
        <time>2017-12-13T10:29:25Z</time>
      </trkpt>
      <trkpt lat="43.47178" lon="5.99617">
        <ele>538.7</ele>
        <time>2017-12-13T10:29:38Z</time>
      </trkpt>
      <trkpt lat="43.47182" lon="5.99628">
        <ele>537.7</ele>
        <time>2017-12-13T10:29:50Z</time>
      </trkpt>
      <trkpt lat="43.47191" lon="5.99628">
        <ele>537.1</ele>
        <time>2017-12-13T10:30:01Z</time>
      </trkpt>
      <trkpt lat="43.47199" lon="5.99623">
        <ele>536.8</ele>
        <time>2017-12-13T10:30:13Z</time>
      </trkpt>
      <trkpt lat="43.47207" lon="5.99615">
        <ele>536.7</ele>
        <time>2017-12-13T10:30:25Z</time>
      </trkpt>
      <trkpt lat="43.47214" lon="5.99607">
        <ele>537.3</ele>
        <time>2017-12-13T10:30:41Z</time>
      </trkpt>
      <trkpt lat="43.47221" lon="5.99598">
        <ele>538.2</ele>
        <time>2017-12-13T10:31:07Z</time>
      </trkpt>
      <trkpt lat="43.4723" lon="5.99599">
        <ele>538.7</ele>
        <time>2017-12-13T10:31:54Z</time>
      </trkpt>
      <trkpt lat="43.47221" lon="5.99601">
        <ele>538.1</ele>
        <time>2017-12-13T10:48:19Z</time>
      </trkpt>
      <trkpt lat="43.4723" lon="5.99601">
        <ele>538</ele>
        <time>2017-12-13T10:51:22Z</time>
      </trkpt>
      <trkpt lat="43.47221" lon="5.99601">
        <ele>538.2</ele>
        <time>2017-12-13T11:01:48Z</time>
      </trkpt>
      <trkpt lat="43.4723" lon="5.99603">
        <ele>540.9</ele>
        <time>2017-12-13T11:03:19Z</time>
      </trkpt>
      <trkpt lat="43.47225" lon="5.99592">
        <ele>542.3</ele>
        <time>2017-12-13T11:22:45Z</time>
      </trkpt>
      <trkpt lat="43.47217" lon="5.99596">
        <ele>542.7</ele>
        <time>2017-12-13T11:23:03Z</time>
      </trkpt>
      <trkpt lat="43.47209" lon="5.99604">
        <ele>543.1</ele>
        <time>2017-12-13T11:23:17Z</time>
      </trkpt>
      <trkpt lat="43.47204" lon="5.99614">
        <ele>543.4</ele>
        <time>2017-12-13T11:23:28Z</time>
      </trkpt>
      <trkpt lat="43.47197" lon="5.99622">
        <ele>543.5</ele>
        <time>2017-12-13T11:23:38Z</time>
      </trkpt>
      <trkpt lat="43.47189" lon="5.99627">
        <ele>543.2</ele>
        <time>2017-12-13T11:23:52Z</time>
      </trkpt>
      <trkpt lat="43.47188" lon="5.99614">
        <ele>543.6</ele>
        <time>2017-12-13T11:24:12Z</time>
      </trkpt>
      <trkpt lat="43.47185" lon="5.99602">
        <ele>544.3</ele>
        <time>2017-12-13T11:24:23Z</time>
      </trkpt>
      <trkpt lat="43.47181" lon="5.9959">
        <ele>545.1</ele>
        <time>2017-12-13T11:24:33Z</time>
      </trkpt>
      <trkpt lat="43.47176" lon="5.99579">
        <ele>545.6</ele>
        <time>2017-12-13T11:24:44Z</time>
      </trkpt>
      <trkpt lat="43.47168" lon="5.99573">
        <ele>545.9</ele>
        <time>2017-12-13T11:24:55Z</time>
      </trkpt>
      <trkpt lat="43.47162" lon="5.99563">
        <ele>546.1</ele>
        <time>2017-12-13T11:25:10Z</time>
      </trkpt>
      <trkpt lat="43.47154" lon="5.99556">
        <ele>546.6</ele>
        <time>2017-12-13T11:25:20Z</time>
      </trkpt>
      <trkpt lat="43.47149" lon="5.99545">
        <ele>546.9</ele>
        <time>2017-12-13T11:25:34Z</time>
      </trkpt>
      <trkpt lat="43.47145" lon="5.99533">
        <ele>547.4</ele>
        <time>2017-12-13T11:25:48Z</time>
      </trkpt>
      <trkpt lat="43.47141" lon="5.99522">
        <ele>548.5</ele>
        <time>2017-12-13T11:26:06Z</time>
      </trkpt>
      <trkpt lat="43.47135" lon="5.99512">
        <ele>549.1</ele>
        <time>2017-12-13T11:26:26Z</time>
      </trkpt>
      <trkpt lat="43.47133" lon="5.995">
        <ele>549.5</ele>
        <time>2017-12-13T11:26:39Z</time>
      </trkpt>
      <trkpt lat="43.47132" lon="5.99486">
        <ele>550.2</ele>
        <time>2017-12-13T11:26:51Z</time>
      </trkpt>
      <trkpt lat="43.47133" lon="5.99473">
        <ele>551</ele>
        <time>2017-12-13T11:27:04Z</time>
      </trkpt>
      <trkpt lat="43.4713" lon="5.99461">
        <ele>551.5</ele>
        <time>2017-12-13T11:27:15Z</time>
      </trkpt>
      <trkpt lat="43.47131" lon="5.99448">
        <ele>551.7</ele>
        <time>2017-12-13T11:27:25Z</time>
      </trkpt>
      <trkpt lat="43.47132" lon="5.99436">
        <ele>552</ele>
        <time>2017-12-13T11:27:37Z</time>
      </trkpt>
      <trkpt lat="43.47133" lon="5.99423">
        <ele>552.6</ele>
        <time>2017-12-13T11:27:47Z</time>
      </trkpt>
      <trkpt lat="43.47133" lon="5.9941">
        <ele>553.1</ele>
        <time>2017-12-13T11:27:58Z</time>
      </trkpt>
      <trkpt lat="43.47132" lon="5.99398">
        <ele>553.9</ele>
        <time>2017-12-13T11:28:12Z</time>
      </trkpt>
      <trkpt lat="43.47133" lon="5.99384">
        <ele>554.2</ele>
        <time>2017-12-13T11:28:20Z</time>
      </trkpt>
      <trkpt lat="43.47138" lon="5.99374">
        <ele>554.1</ele>
        <time>2017-12-13T11:28:40Z</time>
      </trkpt>
      <trkpt lat="43.47143" lon="5.99363">
        <ele>551.8</ele>
        <time>2017-12-13T11:29:06Z</time>
      </trkpt>
      <trkpt lat="43.4715" lon="5.99355">
        <ele>549.2</ele>
        <time>2017-12-13T11:29:24Z</time>
      </trkpt>
      <trkpt lat="43.47155" lon="5.99345">
        <ele>544.9</ele>
        <time>2017-12-13T11:29:52Z</time>
      </trkpt>
      <trkpt lat="43.47157" lon="5.99332">
        <ele>541.6</ele>
        <time>2017-12-13T11:30:10Z</time>
      </trkpt>
      <trkpt lat="43.47161" lon="5.9932">
        <ele>540.2</ele>
        <time>2017-12-13T11:30:18Z</time>
      </trkpt>
      <trkpt lat="43.47163" lon="5.99307">
        <ele>539.2</ele>
        <time>2017-12-13T11:30:26Z</time>
      </trkpt>
      <trkpt lat="43.47167" lon="5.99295">
        <ele>538.6</ele>
        <time>2017-12-13T11:30:35Z</time>
      </trkpt>
      <trkpt lat="43.47167" lon="5.99282">
        <ele>537.9</ele>
        <time>2017-12-13T11:30:49Z</time>
      </trkpt>
      <trkpt lat="43.47161" lon="5.99272">
        <ele>537.2</ele>
        <time>2017-12-13T11:31:11Z</time>
      </trkpt>
      <trkpt lat="43.4716" lon="5.9926">
        <ele>535.4</ele>
        <time>2017-12-13T11:31:42Z</time>
      </trkpt>
      <trkpt lat="43.47167" lon="5.9925">
        <ele>533.7</ele>
        <time>2017-12-13T11:31:52Z</time>
      </trkpt>
      <trkpt lat="43.47171" lon="5.99239">
        <ele>530.6</ele>
        <time>2017-12-13T11:32:07Z</time>
      </trkpt>
      <trkpt lat="43.47179" lon="5.99232">
        <ele>526.3</ele>
        <time>2017-12-13T11:32:33Z</time>
      </trkpt>
      <trkpt lat="43.47184" lon="5.99221">
        <ele>522.1</ele>
        <time>2017-12-13T11:32:57Z</time>
      </trkpt>
      <trkpt lat="43.47193" lon="5.99214">
        <ele>519.6</ele>
        <time>2017-12-13T11:33:09Z</time>
      </trkpt>
      <trkpt lat="43.47199" lon="5.99205">
        <ele>518.5</ele>
        <time>2017-12-13T11:33:18Z</time>
      </trkpt>
      <trkpt lat="43.47206" lon="5.99195">
        <ele>518.1</ele>
        <time>2017-12-13T11:33:34Z</time>
      </trkpt>
      <trkpt lat="43.47211" lon="5.99185">
        <ele>517.7</ele>
        <time>2017-12-13T11:33:50Z</time>
      </trkpt>
      <trkpt lat="43.4722" lon="5.99181">
        <ele>516.5</ele>
        <time>2017-12-13T11:34:04Z</time>
      </trkpt>
      <trkpt lat="43.47225" lon="5.9917">
        <ele>515.8</ele>
        <time>2017-12-13T11:34:14Z</time>
      </trkpt>
      <trkpt lat="43.47221" lon="5.99158">
        <ele>515.5</ele>
        <time>2017-12-13T11:34:20Z</time>
      </trkpt>
      <trkpt lat="43.47219" lon="5.99146">
        <ele>515.1</ele>
        <time>2017-12-13T11:34:31Z</time>
      </trkpt>
      <trkpt lat="43.47225" lon="5.99137">
        <ele>513.7</ele>
        <time>2017-12-13T11:34:53Z</time>
      </trkpt>
      <trkpt lat="43.47234" lon="5.99132">
        <ele>512.7</ele>
        <time>2017-12-13T11:35:06Z</time>
      </trkpt>
      <trkpt lat="43.47244" lon="5.99131">
        <ele>511.5</ele>
        <time>2017-12-13T11:35:16Z</time>
      </trkpt>
      <trkpt lat="43.47252" lon="5.99123">
        <ele>510.8</ele>
        <time>2017-12-13T11:35:26Z</time>
      </trkpt>
      <trkpt lat="43.47262" lon="5.99121">
        <ele>510.1</ele>
        <time>2017-12-13T11:35:36Z</time>
      </trkpt>
      <trkpt lat="43.47271" lon="5.99119">
        <ele>509.5</ele>
        <time>2017-12-13T11:35:47Z</time>
      </trkpt>
      <trkpt lat="43.4728" lon="5.99116">
        <ele>509.1</ele>
        <time>2017-12-13T11:36:04Z</time>
      </trkpt>
      <trkpt lat="43.47283" lon="5.99104">
        <ele>509.2</ele>
        <time>2017-12-13T11:36:38Z</time>
      </trkpt>
      <trkpt lat="43.47287" lon="5.99092">
        <ele>509.2</ele>
        <time>2017-12-13T11:36:46Z</time>
      </trkpt>
      <trkpt lat="43.47291" lon="5.9908">
        <ele>509.3</ele>
        <time>2017-12-13T11:36:55Z</time>
      </trkpt>
      <trkpt lat="43.473" lon="5.99076">
        <ele>510.9</ele>
        <time>2017-12-13T11:37:12Z</time>
      </trkpt>
      <trkpt lat="43.47307" lon="5.99067">
        <ele>514.8</ele>
        <time>2017-12-13T11:37:45Z</time>
      </trkpt>
      <trkpt lat="43.47315" lon="5.99061">
        <ele>517.1</ele>
        <time>2017-12-13T11:38:00Z</time>
      </trkpt>
      <trkpt lat="43.4732" lon="5.99049">
        <ele>519.9</ele>
        <time>2017-12-13T11:38:20Z</time>
      </trkpt>
      <trkpt lat="43.4732" lon="5.99035">
        <ele>521.1</ele>
        <time>2017-12-13T11:38:34Z</time>
      </trkpt>
      <trkpt lat="43.47322" lon="5.99023">
        <ele>522</ele>
        <time>2017-12-13T11:38:49Z</time>
      </trkpt>
      <trkpt lat="43.47322" lon="5.9901">
        <ele>522.8</ele>
        <time>2017-12-13T11:39:03Z</time>
      </trkpt>
      <trkpt lat="43.47322" lon="5.98997">
        <ele>523.5</ele>
        <time>2017-12-13T11:39:12Z</time>
      </trkpt>
      <trkpt lat="43.47323" lon="5.98985">
        <ele>524.1</ele>
        <time>2017-12-13T11:39:28Z</time>
      </trkpt>
      <trkpt lat="43.47323" lon="5.98972">
        <ele>525.6</ele>
        <time>2017-12-13T11:39:59Z</time>
      </trkpt>
      <trkpt lat="43.47328" lon="5.98961">
        <ele>527</ele>
        <time>2017-12-13T11:40:16Z</time>
      </trkpt>
      <trkpt lat="43.47335" lon="5.98952">
        <ele>529.2</ele>
        <time>2017-12-13T11:40:38Z</time>
      </trkpt>
      <trkpt lat="43.47344" lon="5.9895">
        <ele>532.8</ele>
        <time>2017-12-13T11:41:02Z</time>
      </trkpt>
      <trkpt lat="43.47348" lon="5.98937">
        <ele>534.2</ele>
        <time>2017-12-13T11:41:12Z</time>
      </trkpt>
      <trkpt lat="43.47357" lon="5.98937">
        <ele>537.4</ele>
        <time>2017-12-13T11:41:33Z</time>
      </trkpt>
      <trkpt lat="43.47364" lon="5.98929">
        <ele>540</ele>
        <time>2017-12-13T11:41:53Z</time>
      </trkpt>
      <trkpt lat="43.47368" lon="5.98918">
        <ele>542.3</ele>
        <time>2017-12-13T11:42:12Z</time>
      </trkpt>
      <trkpt lat="43.47373" lon="5.98907">
        <ele>544.6</ele>
        <time>2017-12-13T11:42:30Z</time>
      </trkpt>
      <trkpt lat="43.47376" lon="5.98895">
        <ele>546.3</ele>
        <time>2017-12-13T11:42:44Z</time>
      </trkpt>
      <trkpt lat="43.4738" lon="5.98883">
        <ele>547.5</ele>
        <time>2017-12-13T11:42:57Z</time>
      </trkpt>
      <trkpt lat="43.47386" lon="5.98872">
        <ele>548.5</ele>
        <time>2017-12-13T11:43:11Z</time>
      </trkpt>
      <trkpt lat="43.4739" lon="5.98861">
        <ele>549</ele>
        <time>2017-12-13T11:43:20Z</time>
      </trkpt>
      <trkpt lat="43.47397" lon="5.98852">
        <ele>549.3</ele>
        <time>2017-12-13T11:43:28Z</time>
      </trkpt>
      <trkpt lat="43.47404" lon="5.98842">
        <ele>549.7</ele>
        <time>2017-12-13T11:43:38Z</time>
      </trkpt>
      <trkpt lat="43.47408" lon="5.9883">
        <ele>550.2</ele>
        <time>2017-12-13T11:43:50Z</time>
      </trkpt>
      <trkpt lat="43.47409" lon="5.98817">
        <ele>550.5</ele>
        <time>2017-12-13T11:44:00Z</time>
      </trkpt>
      <trkpt lat="43.47416" lon="5.98808">
        <ele>550.8</ele>
        <time>2017-12-13T11:44:15Z</time>
      </trkpt>
      <trkpt lat="43.47418" lon="5.98796">
        <ele>552</ele>
        <time>2017-12-13T11:46:13Z</time>
      </trkpt>
      <trkpt lat="43.47419" lon="5.98783">
        <ele>552.3</ele>
        <time>2017-12-13T11:46:22Z</time>
      </trkpt>
      <trkpt lat="43.47417" lon="5.98771">
        <ele>553</ele>
        <time>2017-12-13T11:46:33Z</time>
      </trkpt>
      <trkpt lat="43.47415" lon="5.98758">
        <ele>554</ele>
        <time>2017-12-13T11:46:45Z</time>
      </trkpt>
      <trkpt lat="43.47416" lon="5.98744">
        <ele>555.1</ele>
        <time>2017-12-13T11:46:57Z</time>
      </trkpt>
      <trkpt lat="43.47419" lon="5.98732">
        <ele>555.6</ele>
        <time>2017-12-13T11:47:05Z</time>
      </trkpt>
      <trkpt lat="43.47424" lon="5.98721">
        <ele>556.3</ele>
        <time>2017-12-13T11:47:16Z</time>
      </trkpt>
      <trkpt lat="43.47429" lon="5.98711">
        <ele>556.8</ele>
        <time>2017-12-13T11:47:25Z</time>
      </trkpt>
      <trkpt lat="43.47435" lon="5.98701">
        <ele>557.3</ele>
        <time>2017-12-13T11:47:35Z</time>
      </trkpt>
      <trkpt lat="43.47435" lon="5.98689">
        <ele>557.8</ele>
        <time>2017-12-13T11:47:44Z</time>
      </trkpt>
      <trkpt lat="43.47435" lon="5.98675">
        <ele>558.7</ele>
        <time>2017-12-13T11:47:54Z</time>
      </trkpt>
      <trkpt lat="43.47432" lon="5.98662">
        <ele>559.2</ele>
        <time>2017-12-13T11:48:03Z</time>
      </trkpt>
      <trkpt lat="43.47427" lon="5.98652">
        <ele>559.4</ele>
        <time>2017-12-13T11:48:11Z</time>
      </trkpt>
      <trkpt lat="43.47421" lon="5.9864">
        <ele>559.4</ele>
        <time>2017-12-13T11:48:22Z</time>
      </trkpt>
      <trkpt lat="43.47417" lon="5.9863">
        <ele>558.8</ele>
        <time>2017-12-13T11:48:33Z</time>
      </trkpt>
      <trkpt lat="43.47411" lon="5.9862">
        <ele>557.7</ele>
        <time>2017-12-13T11:48:44Z</time>
      </trkpt>
      <trkpt lat="43.47404" lon="5.98611">
        <ele>556.2</ele>
        <time>2017-12-13T11:48:58Z</time>
      </trkpt>
      <trkpt lat="43.47398" lon="5.98603">
        <ele>554.6</ele>
        <time>2017-12-13T11:49:10Z</time>
      </trkpt>
      <trkpt lat="43.47391" lon="5.98594">
        <ele>552.8</ele>
        <time>2017-12-13T11:49:23Z</time>
      </trkpt>
      <trkpt lat="43.47386" lon="5.98583">
        <ele>551.4</ele>
        <time>2017-12-13T11:49:34Z</time>
      </trkpt>
      <trkpt lat="43.47381" lon="5.98572">
        <ele>550.1</ele>
        <time>2017-12-13T11:49:44Z</time>
      </trkpt>
      <trkpt lat="43.47377" lon="5.9856">
        <ele>549.1</ele>
        <time>2017-12-13T11:49:53Z</time>
      </trkpt>
      <trkpt lat="43.47376" lon="5.98547">
        <ele>548.2</ele>
        <time>2017-12-13T11:50:03Z</time>
      </trkpt>
      <trkpt lat="43.47372" lon="5.98535">
        <ele>547.7</ele>
        <time>2017-12-13T11:50:12Z</time>
      </trkpt>
      <trkpt lat="43.47366" lon="5.98524">
        <ele>547.5</ele>
        <time>2017-12-13T11:50:20Z</time>
      </trkpt>
      <trkpt lat="43.4736" lon="5.98513">
        <ele>547</ele>
        <time>2017-12-13T11:50:29Z</time>
      </trkpt>
      <trkpt lat="43.47357" lon="5.985">
        <ele>546.5</ele>
        <time>2017-12-13T11:50:38Z</time>
      </trkpt>
      <trkpt lat="43.47353" lon="5.98488">
        <ele>546</ele>
        <time>2017-12-13T11:50:46Z</time>
      </trkpt>
      <trkpt lat="43.47349" lon="5.98477">
        <ele>545.3</ele>
        <time>2017-12-13T11:50:55Z</time>
      </trkpt>
      <trkpt lat="43.47345" lon="5.98463">
        <ele>544.5</ele>
        <time>2017-12-13T11:51:04Z</time>
      </trkpt>
      <trkpt lat="43.47342" lon="5.9845">
        <ele>544.2</ele>
        <time>2017-12-13T11:51:16Z</time>
      </trkpt>
      <trkpt lat="43.47341" lon="5.98438">
        <ele>544.3</ele>
        <time>2017-12-13T11:51:26Z</time>
      </trkpt>
      <trkpt lat="43.47337" lon="5.98426">
        <ele>544.5</ele>
        <time>2017-12-13T11:51:35Z</time>
      </trkpt>
      <trkpt lat="43.4733" lon="5.98416">
        <ele>544.6</ele>
        <time>2017-12-13T11:51:44Z</time>
      </trkpt>
      <trkpt lat="43.47323" lon="5.98408">
        <ele>544.3</ele>
        <time>2017-12-13T11:51:53Z</time>
      </trkpt>
      <trkpt lat="43.47315" lon="5.984">
        <ele>543.5</ele>
        <time>2017-12-13T11:52:03Z</time>
      </trkpt>
      <trkpt lat="43.47307" lon="5.98393">
        <ele>542.3</ele>
        <time>2017-12-13T11:52:14Z</time>
      </trkpt>
      <trkpt lat="43.47301" lon="5.98384">
        <ele>541</ele>
        <time>2017-12-13T11:52:24Z</time>
      </trkpt>
      <trkpt lat="43.47294" lon="5.98375">
        <ele>539.6</ele>
        <time>2017-12-13T11:52:35Z</time>
      </trkpt>
      <trkpt lat="43.47287" lon="5.98367">
        <ele>538.5</ele>
        <time>2017-12-13T11:52:47Z</time>
      </trkpt>
      <trkpt lat="43.47278" lon="5.98361">
        <ele>537.5</ele>
        <time>2017-12-13T11:52:58Z</time>
      </trkpt>
      <trkpt lat="43.4727" lon="5.98354">
        <ele>536.2</ele>
        <time>2017-12-13T11:53:09Z</time>
      </trkpt>
      <trkpt lat="43.47261" lon="5.9835">
        <ele>534.6</ele>
        <time>2017-12-13T11:53:21Z</time>
      </trkpt>
      <trkpt lat="43.47252" lon="5.98346">
        <ele>531.5</ele>
        <time>2017-12-13T11:54:39Z</time>
      </trkpt>
      <trkpt lat="43.47243" lon="5.98343">
        <ele>531.5</ele>
        <time>2017-12-13T11:54:50Z</time>
      </trkpt>
      <trkpt lat="43.47235" lon="5.98336">
        <ele>530.7</ele>
        <time>2017-12-13T11:55:02Z</time>
      </trkpt>
      <trkpt lat="43.4723" lon="5.98325">
        <ele>529.4</ele>
        <time>2017-12-13T11:55:13Z</time>
      </trkpt>
      <trkpt lat="43.47228" lon="5.98312">
        <ele>528.1</ele>
        <time>2017-12-13T11:55:23Z</time>
      </trkpt>
      <trkpt lat="43.47225" lon="5.983">
        <ele>526.7</ele>
        <time>2017-12-13T11:55:33Z</time>
      </trkpt>
      <trkpt lat="43.47224" lon="5.98288">
        <ele>526</ele>
        <time>2017-12-13T11:55:42Z</time>
      </trkpt>
      <trkpt lat="43.47223" lon="5.98275">
        <ele>525.6</ele>
        <time>2017-12-13T11:55:52Z</time>
      </trkpt>
      <trkpt lat="43.47224" lon="5.98261">
        <ele>525</ele>
        <time>2017-12-13T11:56:04Z</time>
      </trkpt>
      <trkpt lat="43.47227" lon="5.98249">
        <ele>524.7</ele>
        <time>2017-12-13T11:56:13Z</time>
      </trkpt>
      <trkpt lat="43.47229" lon="5.98236">
        <ele>524.5</ele>
        <time>2017-12-13T11:56:22Z</time>
      </trkpt>
      <trkpt lat="43.4723" lon="5.98224">
        <ele>524.2</ele>
        <time>2017-12-13T11:56:30Z</time>
      </trkpt>
      <trkpt lat="43.47234" lon="5.98212">
        <ele>523.6</ele>
        <time>2017-12-13T11:56:39Z</time>
      </trkpt>
      <trkpt lat="43.47239" lon="5.982">
        <ele>522.8</ele>
        <time>2017-12-13T11:56:48Z</time>
      </trkpt>
      <trkpt lat="43.47239" lon="5.98187">
        <ele>522.2</ele>
        <time>2017-12-13T11:56:56Z</time>
      </trkpt>
      <trkpt lat="43.47243" lon="5.98176">
        <ele>521.8</ele>
        <time>2017-12-13T11:57:04Z</time>
      </trkpt>
      <trkpt lat="43.47246" lon="5.98163">
        <ele>521.3</ele>
        <time>2017-12-13T11:57:16Z</time>
      </trkpt>
      <trkpt lat="43.4725" lon="5.98152">
        <ele>520.7</ele>
        <time>2017-12-13T11:57:26Z</time>
      </trkpt>
      <trkpt lat="43.47257" lon="5.98143">
        <ele>520.1</ele>
        <time>2017-12-13T11:57:36Z</time>
      </trkpt>
      <trkpt lat="43.47263" lon="5.98134">
        <ele>519</ele>
        <time>2017-12-13T11:57:46Z</time>
      </trkpt>
      <trkpt lat="43.4727" lon="5.98125">
        <ele>517.6</ele>
        <time>2017-12-13T11:57:56Z</time>
      </trkpt>
      <trkpt lat="43.47278" lon="5.98117">
        <ele>516.4</ele>
        <time>2017-12-13T11:58:05Z</time>
      </trkpt>
      <trkpt lat="43.47283" lon="5.98106">
        <ele>515</ele>
        <time>2017-12-13T11:58:15Z</time>
      </trkpt>
      <trkpt lat="43.47289" lon="5.98096">
        <ele>512.5</ele>
        <time>2017-12-13T11:58:53Z</time>
      </trkpt>
      <trkpt lat="43.47294" lon="5.98085">
        <ele>511.9</ele>
        <time>2017-12-13T11:59:06Z</time>
      </trkpt>
      <trkpt lat="43.47295" lon="5.98072">
        <ele>511.3</ele>
        <time>2017-12-13T11:59:19Z</time>
      </trkpt>
      <trkpt lat="43.47298" lon="5.98059">
        <ele>510.3</ele>
        <time>2017-12-13T11:59:34Z</time>
      </trkpt>
      <trkpt lat="43.47299" lon="5.98047">
        <ele>509.2</ele>
        <time>2017-12-13T11:59:49Z</time>
      </trkpt>
      <trkpt lat="43.47301" lon="5.98033">
        <ele>508</ele>
        <time>2017-12-13T12:00:00Z</time>
      </trkpt>
      <trkpt lat="43.47304" lon="5.98022">
        <ele>506.7</ele>
        <time>2017-12-13T12:00:10Z</time>
      </trkpt>
      <trkpt lat="43.47309" lon="5.98011">
        <ele>505.5</ele>
        <time>2017-12-13T12:00:20Z</time>
      </trkpt>
      <trkpt lat="43.47317" lon="5.98003">
        <ele>504.2</ele>
        <time>2017-12-13T12:00:32Z</time>
      </trkpt>
      <trkpt lat="43.47326" lon="5.98">
        <ele>502.9</ele>
        <time>2017-12-13T12:00:43Z</time>
      </trkpt>
      <trkpt lat="43.47336" lon="5.97999">
        <ele>501.9</ele>
        <time>2017-12-13T12:00:52Z</time>
      </trkpt>
      <trkpt lat="43.47345" lon="5.97993">
        <ele>500.9</ele>
        <time>2017-12-13T12:01:01Z</time>
      </trkpt>
      <trkpt lat="43.47349" lon="5.97982">
        <ele>500</ele>
        <time>2017-12-13T12:01:10Z</time>
      </trkpt>
      <trkpt lat="43.47349" lon="5.97968">
        <ele>498.9</ele>
        <time>2017-12-13T12:01:20Z</time>
      </trkpt>
      <trkpt lat="43.47347" lon="5.97955">
        <ele>497.5</ele>
        <time>2017-12-13T12:01:31Z</time>
      </trkpt>
      <trkpt lat="43.47346" lon="5.97942">
        <ele>495.7</ele>
        <time>2017-12-13T12:01:45Z</time>
      </trkpt>
      <trkpt lat="43.47342" lon="5.9793">
        <ele>493.2</ele>
        <time>2017-12-13T12:15:52Z</time>
      </trkpt>
      <trkpt lat="43.47345" lon="5.97918">
        <ele>492.2</ele>
        <time>2017-12-13T12:16:02Z</time>
      </trkpt>
      <trkpt lat="43.47349" lon="5.97907">
        <ele>490.5</ele>
        <time>2017-12-13T12:16:15Z</time>
      </trkpt>
      <trkpt lat="43.47355" lon="5.97896">
        <ele>488.4</ele>
        <time>2017-12-13T12:16:32Z</time>
      </trkpt>
      <trkpt lat="43.47362" lon="5.9789">
        <ele>486.6</ele>
        <time>2017-12-13T12:16:46Z</time>
      </trkpt>
      <trkpt lat="43.47371" lon="5.97893">
        <ele>484.6</ele>
        <time>2017-12-13T12:17:05Z</time>
      </trkpt>
      <trkpt lat="43.47378" lon="5.97903">
        <ele>482.1</ele>
        <time>2017-12-13T12:17:26Z</time>
      </trkpt>
      <trkpt lat="43.47386" lon="5.97908">
        <ele>479.8</ele>
        <time>2017-12-13T12:17:46Z</time>
      </trkpt>
      <trkpt lat="43.47391" lon="5.97918">
        <ele>478</ele>
        <time>2017-12-13T12:18:00Z</time>
      </trkpt>
      <trkpt lat="43.47398" lon="5.97926">
        <ele>476.6</ele>
        <time>2017-12-13T12:18:14Z</time>
      </trkpt>
      <trkpt lat="43.47404" lon="5.97936">
        <ele>475</ele>
        <time>2017-12-13T12:18:26Z</time>
      </trkpt>
      <trkpt lat="43.47411" lon="5.97946">
        <ele>473.2</ele>
        <time>2017-12-13T12:18:38Z</time>
      </trkpt>
      <trkpt lat="43.47415" lon="5.97957">
        <ele>471.4</ele>
        <time>2017-12-13T12:18:50Z</time>
      </trkpt>
      <trkpt lat="43.4742" lon="5.97967">
        <ele>469.7</ele>
        <time>2017-12-13T12:19:03Z</time>
      </trkpt>
      <trkpt lat="43.4743" lon="5.97968">
        <ele>467.6</ele>
        <time>2017-12-13T12:19:17Z</time>
      </trkpt>
      <trkpt lat="43.47434" lon="5.97957">
        <ele>465.6</ele>
        <time>2017-12-13T12:19:31Z</time>
      </trkpt>
      <trkpt lat="43.47437" lon="5.97945">
        <ele>463.6</ele>
        <time>2017-12-13T12:19:46Z</time>
      </trkpt>
      <trkpt lat="43.47442" lon="5.97934">
        <ele>461.4</ele>
        <time>2017-12-13T12:20:00Z</time>
      </trkpt>
      <trkpt lat="43.47444" lon="5.97921">
        <ele>459.2</ele>
        <time>2017-12-13T12:20:15Z</time>
      </trkpt>
      <trkpt lat="43.47446" lon="5.97908">
        <ele>457.4</ele>
        <time>2017-12-13T12:20:28Z</time>
      </trkpt>
      <trkpt lat="43.47445" lon="5.97895">
        <ele>456</ele>
        <time>2017-12-13T12:20:40Z</time>
      </trkpt>
      <trkpt lat="43.47444" lon="5.97882">
        <ele>454.8</ele>
        <time>2017-12-13T12:20:54Z</time>
      </trkpt>
      <trkpt lat="43.47442" lon="5.97869">
        <ele>453.9</ele>
        <time>2017-12-13T12:21:02Z</time>
      </trkpt>
      <trkpt lat="43.4744" lon="5.97856">
        <ele>453.3</ele>
        <time>2017-12-13T12:21:11Z</time>
      </trkpt>
      <trkpt lat="43.47439" lon="5.97844">
        <ele>452.2</ele>
        <time>2017-12-13T12:21:22Z</time>
      </trkpt>
      <trkpt lat="43.47434" lon="5.97833">
        <ele>450.6</ele>
        <time>2017-12-13T12:21:34Z</time>
      </trkpt>
      <trkpt lat="43.4743" lon="5.97821">
        <ele>449.4</ele>
        <time>2017-12-13T12:21:45Z</time>
      </trkpt>
      <trkpt lat="43.47429" lon="5.97808">
        <ele>447.3</ele>
        <time>2017-12-13T12:22:00Z</time>
      </trkpt>
      <trkpt lat="43.4743" lon="5.97795">
        <ele>444.8</ele>
        <time>2017-12-13T12:22:20Z</time>
      </trkpt>
      <trkpt lat="43.47429" lon="5.97782">
        <ele>444.2</ele>
        <time>2017-12-13T12:22:31Z</time>
      </trkpt>
      <trkpt lat="43.4743" lon="5.97769">
        <ele>442.6</ele>
        <time>2017-12-13T12:22:44Z</time>
      </trkpt>
      <trkpt lat="43.47428" lon="5.97756">
        <ele>440.4</ele>
        <time>2017-12-13T12:22:59Z</time>
      </trkpt>
      <trkpt lat="43.47427" lon="5.97743">
        <ele>438.4</ele>
        <time>2017-12-13T12:23:12Z</time>
      </trkpt>
      <trkpt lat="43.47425" lon="5.9773">
        <ele>435.3</ele>
        <time>2017-12-13T12:23:33Z</time>
      </trkpt>
      <trkpt lat="43.47431" lon="5.9772">
        <ele>433.4</ele>
        <time>2017-12-13T12:23:45Z</time>
      </trkpt>
      <trkpt lat="43.47434" lon="5.97708">
        <ele>430.8</ele>
        <time>2017-12-13T12:24:01Z</time>
      </trkpt>
      <trkpt lat="43.47436" lon="5.97696">
        <ele>428.8</ele>
        <time>2017-12-13T12:24:13Z</time>
      </trkpt>
      <trkpt lat="43.47439" lon="5.97684">
        <ele>426.7</ele>
        <time>2017-12-13T12:24:26Z</time>
      </trkpt>
      <trkpt lat="43.47438" lon="5.97672">
        <ele>424.5</ele>
        <time>2017-12-13T12:24:39Z</time>
      </trkpt>
      <trkpt lat="43.47433" lon="5.97661">
        <ele>422.3</ele>
        <time>2017-12-13T12:24:51Z</time>
      </trkpt>
      <trkpt lat="43.4743" lon="5.97649">
        <ele>420.1</ele>
        <time>2017-12-13T12:25:03Z</time>
      </trkpt>
      <trkpt lat="43.47429" lon="5.97636">
        <ele>417.9</ele>
        <time>2017-12-13T12:25:16Z</time>
      </trkpt>
      <trkpt lat="43.47431" lon="5.97623">
        <ele>415.9</ele>
        <time>2017-12-13T12:25:29Z</time>
      </trkpt>
      <trkpt lat="43.47434" lon="5.97611">
        <ele>413.6</ele>
        <time>2017-12-13T12:25:42Z</time>
      </trkpt>
      <trkpt lat="43.47437" lon="5.97599">
        <ele>411.4</ele>
        <time>2017-12-13T12:25:55Z</time>
      </trkpt>
      <trkpt lat="43.4744" lon="5.97587">
        <ele>409.6</ele>
        <time>2017-12-13T12:26:05Z</time>
      </trkpt>
      <trkpt lat="43.47442" lon="5.97574">
        <ele>407.8</ele>
        <time>2017-12-13T12:26:17Z</time>
      </trkpt>
      <trkpt lat="43.47442" lon="5.97561">
        <ele>406.3</ele>
        <time>2017-12-13T12:26:28Z</time>
      </trkpt>
      <trkpt lat="43.47441" lon="5.97547">
        <ele>405</ele>
        <time>2017-12-13T12:26:37Z</time>
      </trkpt>
      <trkpt lat="43.4744" lon="5.97535">
        <ele>403.1</ele>
        <time>2017-12-13T12:26:48Z</time>
      </trkpt>
      <trkpt lat="43.47441" lon="5.97522">
        <ele>401.4</ele>
        <time>2017-12-13T12:26:59Z</time>
      </trkpt>
      <trkpt lat="43.47441" lon="5.97508">
        <ele>399.7</ele>
        <time>2017-12-13T12:27:09Z</time>
      </trkpt>
      <trkpt lat="43.47442" lon="5.97495">
        <ele>397.5</ele>
        <time>2017-12-13T12:27:26Z</time>
      </trkpt>
      <trkpt lat="43.47444" lon="5.97482">
        <ele>396</ele>
        <time>2017-12-13T12:27:43Z</time>
      </trkpt>
      <trkpt lat="43.47444" lon="5.97469">
        <ele>395</ele>
        <time>2017-12-13T12:27:54Z</time>
      </trkpt>
      <trkpt lat="43.47447" lon="5.97457">
        <ele>394.2</ele>
        <time>2017-12-13T12:28:02Z</time>
      </trkpt>
      <trkpt lat="43.4745" lon="5.97445">
        <ele>393.4</ele>
        <time>2017-12-13T12:28:13Z</time>
      </trkpt>
      <trkpt lat="43.47457" lon="5.97436">
        <ele>392.4</ele>
        <time>2017-12-13T12:28:25Z</time>
      </trkpt>
      <trkpt lat="43.47465" lon="5.9743">
        <ele>391.4</ele>
        <time>2017-12-13T12:28:47Z</time>
      </trkpt>
      <trkpt lat="43.47474" lon="5.9743">
        <ele>390.9</ele>
        <time>2017-12-13T12:29:09Z</time>
      </trkpt>
      <trkpt lat="43.47484" lon="5.97428">
        <ele>390.2</ele>
        <time>2017-12-13T12:29:23Z</time>
      </trkpt>
      <trkpt lat="43.47493" lon="5.97432">
        <ele>388.6</ele>
        <time>2017-12-13T12:29:42Z</time>
      </trkpt>
      <trkpt lat="43.47502" lon="5.97439">
        <ele>387</ele>
        <time>2017-12-13T12:29:57Z</time>
      </trkpt>
      <trkpt lat="43.4751" lon="5.97446">
        <ele>386.1</ele>
        <time>2017-12-13T12:30:05Z</time>
      </trkpt>
      <trkpt lat="43.47519" lon="5.97452">
        <ele>384.7</ele>
        <time>2017-12-13T12:30:15Z</time>
      </trkpt>
      <trkpt lat="43.47527" lon="5.97458">
        <ele>383.4</ele>
        <time>2017-12-13T12:30:25Z</time>
      </trkpt>
      <trkpt lat="43.47537" lon="5.97463">
        <ele>382.5</ele>
        <time>2017-12-13T12:30:35Z</time>
      </trkpt>
      <trkpt lat="43.47545" lon="5.97471">
        <ele>381.9</ele>
        <time>2017-12-13T12:30:44Z</time>
      </trkpt>
      <trkpt lat="43.47553" lon="5.97476">
        <ele>381.2</ele>
        <time>2017-12-13T12:30:53Z</time>
      </trkpt>
      <trkpt lat="43.47563" lon="5.9748">
        <ele>380.4</ele>
        <time>2017-12-13T12:31:03Z</time>
      </trkpt>
      <trkpt lat="43.4757" lon="5.97488">
        <ele>379.9</ele>
        <time>2017-12-13T12:31:12Z</time>
      </trkpt>
      <trkpt lat="43.47579" lon="5.97493">
        <ele>379.4</ele>
        <time>2017-12-13T12:31:21Z</time>
      </trkpt>
      <trkpt lat="43.47587" lon="5.975">
        <ele>378.6</ele>
        <time>2017-12-13T12:31:31Z</time>
      </trkpt>
      <trkpt lat="43.47593" lon="5.97509">
        <ele>377.7</ele>
        <time>2017-12-13T12:31:40Z</time>
      </trkpt>
      <trkpt lat="43.476" lon="5.97518">
        <ele>376.6</ele>
        <time>2017-12-13T12:31:50Z</time>
      </trkpt>
      <trkpt lat="43.47609" lon="5.97523">
        <ele>374.8</ele>
        <time>2017-12-13T12:32:01Z</time>
      </trkpt>
      <trkpt lat="43.47618" lon="5.97528">
        <ele>373.2</ele>
        <time>2017-12-13T12:32:11Z</time>
      </trkpt>
      <trkpt lat="43.47627" lon="5.97532">
        <ele>371.5</ele>
        <time>2017-12-13T12:32:22Z</time>
      </trkpt>
      <trkpt lat="43.47635" lon="5.97538">
        <ele>368.3</ele>
        <time>2017-12-13T12:32:39Z</time>
      </trkpt>
      <trkpt lat="43.47643" lon="5.97542">
        <ele>366.4</ele>
        <time>2017-12-13T12:32:51Z</time>
      </trkpt>
      <trkpt lat="43.47649" lon="5.97552">
        <ele>364.6</ele>
        <time>2017-12-13T12:33:04Z</time>
      </trkpt>
      <trkpt lat="43.47654" lon="5.97562">
        <ele>362</ele>
        <time>2017-12-13T12:33:18Z</time>
      </trkpt>
      <trkpt lat="43.4766" lon="5.97573">
        <ele>359.8</ele>
        <time>2017-12-13T12:33:31Z</time>
      </trkpt>
      <trkpt lat="43.47667" lon="5.9758">
        <ele>358.1</ele>
        <time>2017-12-13T12:33:43Z</time>
      </trkpt>
      <trkpt lat="43.47677" lon="5.97577">
        <ele>357.2</ele>
        <time>2017-12-13T12:33:50Z</time>
      </trkpt>
      <trkpt lat="43.47685" lon="5.97569">
        <ele>356.1</ele>
        <time>2017-12-13T12:33:59Z</time>
      </trkpt>
      <trkpt lat="43.47693" lon="5.97563">
        <ele>354.6</ele>
        <time>2017-12-13T12:34:09Z</time>
      </trkpt>
      <trkpt lat="43.47702" lon="5.97559">
        <ele>353.3</ele>
        <time>2017-12-13T12:34:19Z</time>
      </trkpt>
      <trkpt lat="43.47711" lon="5.97563">
        <ele>352.3</ele>
        <time>2017-12-13T12:34:36Z</time>
      </trkpt>
      <trkpt lat="43.4771" lon="5.97576">
        <ele>352.1</ele>
        <time>2017-12-13T12:34:46Z</time>
      </trkpt>
      <trkpt lat="43.47714" lon="5.97588">
        <ele>352.6</ele>
        <time>2017-12-13T12:35:13Z</time>
      </trkpt>
      <trkpt lat="43.47715" lon="5.976">
        <ele>353.5</ele>
        <time>2017-12-13T12:35:28Z</time>
      </trkpt>
      <trkpt lat="43.47717" lon="5.97613">
        <ele>355.5</ele>
        <time>2017-12-13T12:35:49Z</time>
      </trkpt>
      <trkpt lat="43.47724" lon="5.9762">
        <ele>356.9</ele>
        <time>2017-12-13T12:36:00Z</time>
      </trkpt>
      <trkpt lat="43.47732" lon="5.97627">
        <ele>358.7</ele>
        <time>2017-12-13T12:36:13Z</time>
      </trkpt>
      <trkpt lat="43.47738" lon="5.97637">
        <ele>360.1</ele>
        <time>2017-12-13T12:36:25Z</time>
      </trkpt>
      <trkpt lat="43.4774" lon="5.97649">
        <ele>361.3</ele>
        <time>2017-12-13T12:36:37Z</time>
      </trkpt>
      <trkpt lat="43.47743" lon="5.97661">
        <ele>362.5</ele>
        <time>2017-12-13T12:36:50Z</time>
      </trkpt>
      <trkpt lat="43.47747" lon="5.97673">
        <ele>363.8</ele>
        <time>2017-12-13T12:37:05Z</time>
      </trkpt>
      <trkpt lat="43.47749" lon="5.97685">
        <ele>364.6</ele>
        <time>2017-12-13T12:37:15Z</time>
      </trkpt>
      <trkpt lat="43.47752" lon="5.97697">
        <ele>365.8</ele>
        <time>2017-12-13T12:37:26Z</time>
      </trkpt>
      <trkpt lat="43.47756" lon="5.97709">
        <ele>366.5</ele>
        <time>2017-12-13T12:37:33Z</time>
      </trkpt>
      <trkpt lat="43.47761" lon="5.9772">
        <ele>367.2</ele>
        <time>2017-12-13T12:37:43Z</time>
      </trkpt>
      <trkpt lat="43.47765" lon="5.97732">
        <ele>368</ele>
        <time>2017-12-13T12:37:56Z</time>
      </trkpt>
      <trkpt lat="43.47766" lon="5.97745">
        <ele>368.8</ele>
        <time>2017-12-13T12:38:07Z</time>
      </trkpt>
      <trkpt lat="43.47768" lon="5.97758">
        <ele>369.3</ele>
        <time>2017-12-13T12:38:17Z</time>
      </trkpt>
      <trkpt lat="43.47772" lon="5.97769">
        <ele>369.6</ele>
        <time>2017-12-13T12:38:28Z</time>
      </trkpt>
      <trkpt lat="43.47776" lon="5.97781">
        <ele>370</ele>
        <time>2017-12-13T12:38:38Z</time>
      </trkpt>
      <trkpt lat="43.47779" lon="5.97794">
        <ele>370.4</ele>
        <time>2017-12-13T12:38:48Z</time>
      </trkpt>
      <trkpt lat="43.47782" lon="5.97806">
        <ele>370.9</ele>
        <time>2017-12-13T12:38:58Z</time>
      </trkpt>
      <trkpt lat="43.47785" lon="5.97819">
        <ele>371.5</ele>
        <time>2017-12-13T12:39:10Z</time>
      </trkpt>
      <trkpt lat="43.47789" lon="5.9783">
        <ele>372</ele>
        <time>2017-12-13T12:39:21Z</time>
      </trkpt>
      <trkpt lat="43.47791" lon="5.97843">
        <ele>372.4</ele>
        <time>2017-12-13T12:39:30Z</time>
      </trkpt>
      <trkpt lat="43.47794" lon="5.97857">
        <ele>372.9</ele>
        <time>2017-12-13T12:39:42Z</time>
      </trkpt>
      <trkpt lat="43.47797" lon="5.9787">
        <ele>373.5</ele>
        <time>2017-12-13T12:39:52Z</time>
      </trkpt>
      <trkpt lat="43.478" lon="5.97883">
        <ele>373.9</ele>
        <time>2017-12-13T12:40:01Z</time>
      </trkpt>
      <trkpt lat="43.47804" lon="5.97896">
        <ele>374.1</ele>
        <time>2017-12-13T12:40:09Z</time>
      </trkpt>
      <trkpt lat="43.47811" lon="5.97905">
        <ele>374.6</ele>
        <time>2017-12-13T12:40:17Z</time>
      </trkpt>
      <trkpt lat="43.47816" lon="5.97916">
        <ele>374.9</ele>
        <time>2017-12-13T12:40:24Z</time>
      </trkpt>
      <trkpt lat="43.47822" lon="5.97926">
        <ele>375.3</ele>
        <time>2017-12-13T12:40:34Z</time>
      </trkpt>
      <trkpt lat="43.4783" lon="5.97933">
        <ele>375.5</ele>
        <time>2017-12-13T12:40:47Z</time>
      </trkpt>
      <trkpt lat="43.47839" lon="5.97937">
        <ele>375.9</ele>
        <time>2017-12-13T12:40:56Z</time>
      </trkpt>
      <trkpt lat="43.47847" lon="5.97945">
        <ele>376.4</ele>
        <time>2017-12-13T12:41:07Z</time>
      </trkpt>
      <trkpt lat="43.47852" lon="5.97955">
        <ele>376.8</ele>
        <time>2017-12-13T12:41:16Z</time>
      </trkpt>
      <trkpt lat="43.47858" lon="5.97965">
        <ele>376.9</ele>
        <time>2017-12-13T12:41:26Z</time>
      </trkpt>
      <trkpt lat="43.47863" lon="5.97976">
        <ele>376.8</ele>
        <time>2017-12-13T12:41:34Z</time>
      </trkpt>
      <trkpt lat="43.4787" lon="5.97986">
        <ele>376.4</ele>
        <time>2017-12-13T12:41:43Z</time>
      </trkpt>
      <trkpt lat="43.47875" lon="5.97996">
        <ele>376</ele>
        <time>2017-12-13T12:41:52Z</time>
      </trkpt>
      <trkpt lat="43.4788" lon="5.98008">
        <ele>375.8</ele>
        <time>2017-12-13T12:42:01Z</time>
      </trkpt>
      <trkpt lat="43.47887" lon="5.98015">
        <ele>376</ele>
        <time>2017-12-13T12:42:12Z</time>
      </trkpt>
      <trkpt lat="43.47896" lon="5.98016">
        <ele>376.1</ele>
        <time>2017-12-13T12:42:26Z</time>
      </trkpt>
      <trkpt lat="43.47905" lon="5.98011">
        <ele>375.8</ele>
        <time>2017-12-13T12:42:37Z</time>
      </trkpt>
      <trkpt lat="43.47912" lon="5.98001">
        <ele>375.2</ele>
        <time>2017-12-13T12:42:44Z</time>
      </trkpt>
      <trkpt lat="43.47917" lon="5.97992">
        <ele>374.3</ele>
        <time>2017-12-13T12:42:55Z</time>
      </trkpt>
      <trkpt lat="43.47923" lon="5.97981">
        <ele>373.5</ele>
        <time>2017-12-13T12:43:07Z</time>
      </trkpt>
      <trkpt lat="43.47928" lon="5.9797">
        <ele>373.4</ele>
        <time>2017-12-13T12:43:19Z</time>
      </trkpt>
      <trkpt lat="43.47933" lon="5.97958">
        <ele>373</ele>
        <time>2017-12-13T12:43:31Z</time>
      </trkpt>
      <trkpt lat="43.47938" lon="5.97947">
        <ele>372.5</ele>
        <time>2017-12-13T12:43:42Z</time>
      </trkpt>
      <trkpt lat="43.47942" lon="5.97935">
        <ele>372</ele>
        <time>2017-12-13T12:43:53Z</time>
      </trkpt>
      <trkpt lat="43.47948" lon="5.97923">
        <ele>371.3</ele>
        <time>2017-12-13T12:44:03Z</time>
      </trkpt>
      <trkpt lat="43.47951" lon="5.97911">
        <ele>370.5</ele>
        <time>2017-12-13T12:44:14Z</time>
      </trkpt>
      <trkpt lat="43.47959" lon="5.97905">
        <ele>370</ele>
        <time>2017-12-13T12:44:24Z</time>
      </trkpt>
      <trkpt lat="43.47967" lon="5.979">
        <ele>369.7</ele>
        <time>2017-12-13T12:44:32Z</time>
      </trkpt>
      <trkpt lat="43.47974" lon="5.97891">
        <ele>369.4</ele>
        <time>2017-12-13T12:44:42Z</time>
      </trkpt>
      <trkpt lat="43.47981" lon="5.97882">
        <ele>368.5</ele>
        <time>2017-12-13T12:44:54Z</time>
      </trkpt>
      <trkpt lat="43.4799" lon="5.97878">
        <ele>368</ele>
        <time>2017-12-13T12:45:03Z</time>
      </trkpt>
      <trkpt lat="43.47999" lon="5.97874">
        <ele>367.2</ele>
        <time>2017-12-13T12:45:18Z</time>
      </trkpt>
      <trkpt lat="43.48008" lon="5.97873">
        <ele>366.4</ele>
        <time>2017-12-13T12:45:29Z</time>
      </trkpt>
      <trkpt lat="43.48017" lon="5.9787">
        <ele>365.5</ele>
        <time>2017-12-13T12:45:41Z</time>
      </trkpt>
      <trkpt lat="43.48026" lon="5.97867">
        <ele>364.1</ele>
        <time>2017-12-13T12:45:53Z</time>
      </trkpt>
      <trkpt lat="43.48035" lon="5.97864">
        <ele>363.2</ele>
        <time>2017-12-13T12:46:06Z</time>
      </trkpt>
      <trkpt lat="43.48043" lon="5.97855">
        <ele>362.7</ele>
        <time>2017-12-13T12:46:18Z</time>
      </trkpt>
      <trkpt lat="43.48049" lon="5.97846">
        <ele>361.9</ele>
        <time>2017-12-13T12:46:30Z</time>
      </trkpt>
      <trkpt lat="43.48058" lon="5.9784">
        <ele>361.2</ele>
        <time>2017-12-13T12:46:41Z</time>
      </trkpt>
      <trkpt lat="43.48066" lon="5.97831">
        <ele>360.7</ele>
        <time>2017-12-13T12:46:52Z</time>
      </trkpt>
      <trkpt lat="43.48073" lon="5.97824">
        <ele>360.1</ele>
        <time>2017-12-13T12:47:02Z</time>
      </trkpt>
      <trkpt lat="43.48081" lon="5.97816">
        <ele>359.5</ele>
        <time>2017-12-13T12:47:11Z</time>
      </trkpt>
      <trkpt lat="43.48089" lon="5.97809">
        <ele>358.8</ele>
        <time>2017-12-13T12:47:22Z</time>
      </trkpt>
      <trkpt lat="43.48099" lon="5.97805">
        <ele>358.3</ele>
        <time>2017-12-13T12:47:32Z</time>
      </trkpt>
      <trkpt lat="43.48108" lon="5.978">
        <ele>357.6</ele>
        <time>2017-12-13T12:47:44Z</time>
      </trkpt>
      <trkpt lat="43.48117" lon="5.97804">
        <ele>356.8</ele>
        <time>2017-12-13T12:47:56Z</time>
      </trkpt>
      <trkpt lat="43.48127" lon="5.97805">
        <ele>355.7</ele>
        <time>2017-12-13T12:48:09Z</time>
      </trkpt>
      <trkpt lat="43.48136" lon="5.97803">
        <ele>354.9</ele>
        <time>2017-12-13T12:48:17Z</time>
      </trkpt>
      <trkpt lat="43.48145" lon="5.97802">
        <ele>354.2</ele>
        <time>2017-12-13T12:48:27Z</time>
      </trkpt>
      <trkpt lat="43.48155" lon="5.978">
        <ele>353.4</ele>
        <time>2017-12-13T12:48:38Z</time>
      </trkpt>
      <trkpt lat="43.48163" lon="5.97793">
        <ele>351.8</ele>
        <time>2017-12-13T12:48:54Z</time>
      </trkpt>
      <trkpt lat="43.4817" lon="5.97784">
        <ele>351.3</ele>
        <time>2017-12-13T12:49:01Z</time>
      </trkpt>
      <trkpt lat="43.48178" lon="5.97776">
        <ele>350.2</ele>
        <time>2017-12-13T12:49:11Z</time>
      </trkpt>
      <trkpt lat="43.48186" lon="5.97768">
        <ele>349</ele>
        <time>2017-12-13T12:49:23Z</time>
      </trkpt>
      <trkpt lat="43.48195" lon="5.97765">
        <ele>348.2</ele>
        <time>2017-12-13T12:49:32Z</time>
      </trkpt>
      <trkpt lat="43.48203" lon="5.97759">
        <ele>347.5</ele>
        <time>2017-12-13T12:49:42Z</time>
      </trkpt>
      <trkpt lat="43.48213" lon="5.97757">
        <ele>347</ele>
        <time>2017-12-13T12:49:55Z</time>
      </trkpt>
      <trkpt lat="43.48222" lon="5.97757">
        <ele>346.9</ele>
        <time>2017-12-13T12:50:05Z</time>
      </trkpt>
      <trkpt lat="43.48231" lon="5.97757">
        <ele>346.8</ele>
        <time>2017-12-13T12:50:18Z</time>
      </trkpt>
      <trkpt lat="43.48241" lon="5.97756">
        <ele>346.5</ele>
        <time>2017-12-13T12:50:28Z</time>
      </trkpt>
      <trkpt lat="43.4825" lon="5.97758">
        <ele>346.1</ele>
        <time>2017-12-13T12:50:37Z</time>
      </trkpt>
      <trkpt lat="43.4826" lon="5.97762">
        <ele>345.8</ele>
        <time>2017-12-13T12:50:48Z</time>
      </trkpt>
      <trkpt lat="43.48269" lon="5.97765">
        <ele>345.1</ele>
        <time>2017-12-13T12:50:58Z</time>
      </trkpt>
      <trkpt lat="43.48277" lon="5.9777">
        <ele>344.5</ele>
        <time>2017-12-13T12:51:06Z</time>
      </trkpt>
      <trkpt lat="43.48287" lon="5.97772">
        <ele>344</ele>
        <time>2017-12-13T12:51:16Z</time>
      </trkpt>
      <trkpt lat="43.48297" lon="5.97773">
        <ele>343.4</ele>
        <time>2017-12-13T12:51:25Z</time>
      </trkpt>
      <trkpt lat="43.48307" lon="5.97772">
        <ele>342.5</ele>
        <time>2017-12-13T12:51:35Z</time>
      </trkpt>
      <trkpt lat="43.48316" lon="5.97777">
        <ele>341.8</ele>
        <time>2017-12-13T12:51:46Z</time>
      </trkpt>
      <trkpt lat="43.48325" lon="5.97781">
        <ele>341.3</ele>
        <time>2017-12-13T12:51:56Z</time>
      </trkpt>
      <trkpt lat="43.48334" lon="5.97778">
        <ele>341</ele>
        <time>2017-12-13T12:52:03Z</time>
      </trkpt>
      <trkpt lat="43.48343" lon="5.97779">
        <ele>340.4</ele>
        <time>2017-12-13T12:52:14Z</time>
      </trkpt>
      <trkpt lat="43.48353" lon="5.97781">
        <ele>339.8</ele>
        <time>2017-12-13T12:52:23Z</time>
      </trkpt>
      <trkpt lat="43.48362" lon="5.97785">
        <ele>339.1</ele>
        <time>2017-12-13T12:52:33Z</time>
      </trkpt>
      <trkpt lat="43.48371" lon="5.97788">
        <ele>338.5</ele>
        <time>2017-12-13T12:52:45Z</time>
      </trkpt>
      <trkpt lat="43.4838" lon="5.97794">
        <ele>337.7</ele>
        <time>2017-12-13T12:52:57Z</time>
      </trkpt>
      <trkpt lat="43.48389" lon="5.97799">
        <ele>337.1</ele>
        <time>2017-12-13T12:53:08Z</time>
      </trkpt>
      <trkpt lat="43.48395" lon="5.97809">
        <ele>336.5</ele>
        <time>2017-12-13T12:53:17Z</time>
      </trkpt>
      <trkpt lat="43.48404" lon="5.97814">
        <ele>335.5</ele>
        <time>2017-12-13T12:53:28Z</time>
      </trkpt>
      <trkpt lat="43.48412" lon="5.97823">
        <ele>334.7</ele>
        <time>2017-12-13T12:53:37Z</time>
      </trkpt>
      <trkpt lat="43.48416" lon="5.97835">
        <ele>334.4</ele>
        <time>2017-12-13T12:53:44Z</time>
      </trkpt>
      <trkpt lat="43.48425" lon="5.97837">
        <ele>334.3</ele>
        <time>2017-12-13T12:53:56Z</time>
      </trkpt>
      <trkpt lat="43.48432" lon="5.97829">
        <ele>333.6</ele>
        <time>2017-12-13T12:54:36Z</time>
      </trkpt>
      <trkpt lat="43.48432" lon="5.97817">
        <ele>333.3</ele>
        <time>2017-12-13T12:54:53Z</time>
      </trkpt>
      <trkpt lat="43.48429" lon="5.97804">
        <ele>333.3</ele>
        <time>2017-12-13T12:56:04Z</time>
      </trkpt>
      <trkpt lat="43.4843" lon="5.97791">
        <ele>333.3</ele>
        <time>2017-12-13T12:56:12Z</time>
      </trkpt>
      <trkpt lat="43.48427" lon="5.97779">
        <ele>333.6</ele>
        <time>2017-12-13T12:56:20Z</time>
      </trkpt>
      <trkpt lat="43.48425" lon="5.97766">
        <ele>334.1</ele>
        <time>2017-12-13T12:56:29Z</time>
      </trkpt>
      <trkpt lat="43.48422" lon="5.97753">
        <ele>334.6</ele>
        <time>2017-12-13T12:56:39Z</time>
      </trkpt>
      <trkpt lat="43.4842" lon="5.9774">
        <ele>335</ele>
        <time>2017-12-13T12:56:48Z</time>
      </trkpt>
      <trkpt lat="43.48416" lon="5.97728">
        <ele>335.5</ele>
        <time>2017-12-13T12:56:56Z</time>
      </trkpt>
      <trkpt lat="43.48413" lon="5.97716">
        <ele>336.2</ele>
        <time>2017-12-13T12:57:05Z</time>
      </trkpt>
      <trkpt lat="43.48409" lon="5.97704">
        <ele>336.7</ele>
        <time>2017-12-13T12:57:14Z</time>
      </trkpt>
      <trkpt lat="43.48403" lon="5.97694">
        <ele>337</ele>
        <time>2017-12-13T12:57:22Z</time>
      </trkpt>
      <trkpt lat="43.48397" lon="5.97683">
        <ele>337.1</ele>
        <time>2017-12-13T12:57:31Z</time>
      </trkpt>
      <trkpt lat="43.48392" lon="5.97672">
        <ele>336.8</ele>
        <time>2017-12-13T12:57:40Z</time>
      </trkpt>
      <trkpt lat="43.4839" lon="5.97659">
        <ele>336.6</ele>
        <time>2017-12-13T12:57:52Z</time>
      </trkpt>
      <trkpt lat="43.48386" lon="5.97647">
        <ele>336.4</ele>
        <time>2017-12-13T12:57:59Z</time>
      </trkpt>
      <trkpt lat="43.4838" lon="5.97637">
        <ele>336.2</ele>
        <time>2017-12-13T12:58:05Z</time>
      </trkpt>
      <trkpt lat="43.48377" lon="5.97626">
        <ele>335.7</ele>
        <time>2017-12-13T12:58:13Z</time>
      </trkpt>
      <trkpt lat="43.48373" lon="5.97613">
        <ele>335.3</ele>
        <time>2017-12-13T12:58:22Z</time>
      </trkpt>
      <trkpt lat="43.48367" lon="5.97603">
        <ele>335</ele>
        <time>2017-12-13T12:58:31Z</time>
      </trkpt>
      <trkpt lat="43.48363" lon="5.97592">
        <ele>334.6</ele>
        <time>2017-12-13T12:58:40Z</time>
      </trkpt>
      <trkpt lat="43.48358" lon="5.97581">
        <ele>333.9</ele>
        <time>2017-12-13T12:58:50Z</time>
      </trkpt>
      <trkpt lat="43.48352" lon="5.97571">
        <ele>333.5</ele>
        <time>2017-12-13T12:58:59Z</time>
      </trkpt>
      <trkpt lat="43.48345" lon="5.97562">
        <ele>333.1</ele>
        <time>2017-12-13T12:59:07Z</time>
      </trkpt>
      <trkpt lat="43.48338" lon="5.97554">
        <ele>332.8</ele>
        <time>2017-12-13T12:59:15Z</time>
      </trkpt>
      <trkpt lat="43.48331" lon="5.97545">
        <ele>332.1</ele>
        <time>2017-12-13T12:59:25Z</time>
      </trkpt>
      <trkpt lat="43.48323" lon="5.97537">
        <ele>331.7</ele>
        <time>2017-12-13T12:59:35Z</time>
      </trkpt>
      <trkpt lat="43.48318" lon="5.97526">
        <ele>331.4</ele>
        <time>2017-12-13T12:59:44Z</time>
      </trkpt>
      <trkpt lat="43.48312" lon="5.97515">
        <ele>331.3</ele>
        <time>2017-12-13T12:59:53Z</time>
      </trkpt>
      <trkpt lat="43.48306" lon="5.97505">
        <ele>331.1</ele>
        <time>2017-12-13T13:00:04Z</time>
      </trkpt>
      <trkpt lat="43.483" lon="5.97496">
        <ele>331.1</ele>
        <time>2017-12-13T13:00:13Z</time>
      </trkpt>
      <trkpt lat="43.48293" lon="5.97488">
        <ele>331.2</ele>
        <time>2017-12-13T13:00:22Z</time>
      </trkpt>
      <trkpt lat="43.48286" lon="5.9748">
        <ele>331.3</ele>
        <time>2017-12-13T13:00:30Z</time>
      </trkpt>
      <trkpt lat="43.48281" lon="5.97469">
        <ele>331.4</ele>
        <time>2017-12-13T13:00:38Z</time>
      </trkpt>
      <trkpt lat="43.48275" lon="5.97459">
        <ele>331.7</ele>
        <time>2017-12-13T13:00:47Z</time>
      </trkpt>
      <trkpt lat="43.48268" lon="5.9745">
        <ele>331.8</ele>
        <time>2017-12-13T13:00:56Z</time>
      </trkpt>
      <trkpt lat="43.48259" lon="5.97444">
        <ele>332.2</ele>
        <time>2017-12-13T13:01:06Z</time>
      </trkpt>
      <trkpt lat="43.48254" lon="5.97434">
        <ele>332.8</ele>
        <time>2017-12-13T13:01:14Z</time>
      </trkpt>
      <trkpt lat="43.48246" lon="5.97424">
        <ele>333</ele>
        <time>2017-12-13T13:01:23Z</time>
      </trkpt>
      <trkpt lat="43.48238" lon="5.97416">
        <ele>332.5</ele>
        <time>2017-12-13T13:01:32Z</time>
      </trkpt>
      <trkpt lat="43.4823" lon="5.9741">
        <ele>332.1</ele>
        <time>2017-12-13T13:01:41Z</time>
      </trkpt>
      <trkpt lat="43.48221" lon="5.97405">
        <ele>331.7</ele>
        <time>2017-12-13T13:01:49Z</time>
      </trkpt>
      <trkpt lat="43.48213" lon="5.97398">
        <ele>331.2</ele>
        <time>2017-12-13T13:01:57Z</time>
      </trkpt>
      <trkpt lat="43.48204" lon="5.97392">
        <ele>330.5</ele>
        <time>2017-12-13T13:02:06Z</time>
      </trkpt>
      <trkpt lat="43.48195" lon="5.97387">
        <ele>330.1</ele>
        <time>2017-12-13T13:02:14Z</time>
      </trkpt>
      <trkpt lat="43.48185" lon="5.97382">
        <ele>329.8</ele>
        <time>2017-12-13T13:02:22Z</time>
      </trkpt>
      <trkpt lat="43.48176" lon="5.97376">
        <ele>329.5</ele>
        <time>2017-12-13T13:02:29Z</time>
      </trkpt>
      <trkpt lat="43.48167" lon="5.97371">
        <ele>329.2</ele>
        <time>2017-12-13T13:02:37Z</time>
      </trkpt>
      <trkpt lat="43.48159" lon="5.97366">
        <ele>329.1</ele>
        <time>2017-12-13T13:02:45Z</time>
      </trkpt>
      <trkpt lat="43.4815" lon="5.9736">
        <ele>328.7</ele>
        <time>2017-12-13T13:02:54Z</time>
      </trkpt>
      <trkpt lat="43.48141" lon="5.97355">
        <ele>328.4</ele>
        <time>2017-12-13T13:03:02Z</time>
      </trkpt>
      <trkpt lat="43.48132" lon="5.9735">
        <ele>328.2</ele>
        <time>2017-12-13T13:03:10Z</time>
      </trkpt>
      <trkpt lat="43.48123" lon="5.97345">
        <ele>327.9</ele>
        <time>2017-12-13T13:03:17Z</time>
      </trkpt>
      <trkpt lat="43.48114" lon="5.9734">
        <ele>327.6</ele>
        <time>2017-12-13T13:03:25Z</time>
      </trkpt>
      <trkpt lat="43.48106" lon="5.97333">
        <ele>326.9</ele>
        <time>2017-12-13T13:03:33Z</time>
      </trkpt>
      <trkpt lat="43.48097" lon="5.97327">
        <ele>326.5</ele>
        <time>2017-12-13T13:03:42Z</time>
      </trkpt>
      <trkpt lat="43.48089" lon="5.97319">
        <ele>326.2</ele>
        <time>2017-12-13T13:03:51Z</time>
      </trkpt>
      <trkpt lat="43.48082" lon="5.9731">
        <ele>325.9</ele>
        <time>2017-12-13T13:04:00Z</time>
      </trkpt>
      <trkpt lat="43.48074" lon="5.97301">
        <ele>325.6</ele>
        <time>2017-12-13T13:04:09Z</time>
      </trkpt>
      <trkpt lat="43.48067" lon="5.97291">
        <ele>325.3</ele>
        <time>2017-12-13T13:04:17Z</time>
      </trkpt>
      <trkpt lat="43.4806" lon="5.97282">
        <ele>325.2</ele>
        <time>2017-12-13T13:04:26Z</time>
      </trkpt>
      <trkpt lat="43.48054" lon="5.97272">
        <ele>325.1</ele>
        <time>2017-12-13T13:04:35Z</time>
      </trkpt>
      <trkpt lat="43.48047" lon="5.97264">
        <ele>325</ele>
        <time>2017-12-13T13:04:43Z</time>
      </trkpt>
      <trkpt lat="43.48041" lon="5.97254">
        <ele>324.9</ele>
        <time>2017-12-13T13:04:52Z</time>
      </trkpt>
      <trkpt lat="43.48035" lon="5.97245">
        <ele>324.8</ele>
        <time>2017-12-13T13:05:01Z</time>
      </trkpt>
      <trkpt lat="43.48028" lon="5.97237">
        <ele>324.5</ele>
        <time>2017-12-13T13:05:09Z</time>
      </trkpt>
      <trkpt lat="43.4802" lon="5.9723">
        <ele>324.2</ele>
        <time>2017-12-13T13:05:26Z</time>
      </trkpt>
      <trkpt lat="43.48014" lon="5.9722">
        <ele>324.2</ele>
        <time>2017-12-13T13:05:35Z</time>
      </trkpt>
      <trkpt lat="43.48008" lon="5.9721">
        <ele>324.3</ele>
        <time>2017-12-13T13:05:43Z</time>
      </trkpt>
      <trkpt lat="43.48001" lon="5.97201">
        <ele>324.3</ele>
        <time>2017-12-13T13:05:52Z</time>
      </trkpt>
      <trkpt lat="43.47995" lon="5.97191">
        <ele>324.3</ele>
        <time>2017-12-13T13:06:01Z</time>
      </trkpt>
      <trkpt lat="43.47989" lon="5.9718">
        <ele>324.3</ele>
        <time>2017-12-13T13:06:09Z</time>
      </trkpt>
      <trkpt lat="43.47983" lon="5.9717">
        <ele>324.2</ele>
        <time>2017-12-13T13:06:17Z</time>
      </trkpt>
      <trkpt lat="43.47979" lon="5.97158">
        <ele>324</ele>
        <time>2017-12-13T13:06:24Z</time>
      </trkpt>
      <trkpt lat="43.47975" lon="5.97145">
        <ele>323.8</ele>
        <time>2017-12-13T13:06:33Z</time>
      </trkpt>
      <trkpt lat="43.47971" lon="5.97132">
        <ele>323.9</ele>
        <time>2017-12-13T13:06:41Z</time>
      </trkpt>
      <trkpt lat="43.47966" lon="5.97122">
        <ele>323.9</ele>
        <time>2017-12-13T13:06:49Z</time>
      </trkpt>
      <trkpt lat="43.4796" lon="5.97111">
        <ele>323.8</ele>
        <time>2017-12-13T13:06:58Z</time>
      </trkpt>
      <trkpt lat="43.47954" lon="5.97101">
        <ele>323.8</ele>
        <time>2017-12-13T13:07:08Z</time>
      </trkpt>
      <trkpt lat="43.47947" lon="5.97092">
        <ele>323.5</ele>
        <time>2017-12-13T13:07:19Z</time>
      </trkpt>
      <trkpt lat="43.47942" lon="5.9708">
        <ele>323.3</ele>
        <time>2017-12-13T13:07:28Z</time>
      </trkpt>
      <trkpt lat="43.47935" lon="5.9707">
        <ele>323.2</ele>
        <time>2017-12-13T13:07:37Z</time>
      </trkpt>
      <trkpt lat="43.47929" lon="5.97061">
        <ele>323.2</ele>
        <time>2017-12-13T13:07:45Z</time>
      </trkpt>
      <trkpt lat="43.47922" lon="5.97051">
        <ele>323.2</ele>
        <time>2017-12-13T13:07:53Z</time>
      </trkpt>
      <trkpt lat="43.47915" lon="5.97042">
        <ele>323.2</ele>
        <time>2017-12-13T13:08:00Z</time>
      </trkpt>
      <trkpt lat="43.47908" lon="5.97033">
        <ele>323.2</ele>
        <time>2017-12-13T13:08:08Z</time>
      </trkpt>
      <trkpt lat="43.47901" lon="5.97024">
        <ele>323.2</ele>
        <time>2017-12-13T13:08:17Z</time>
      </trkpt>
      <trkpt lat="43.47894" lon="5.97016">
        <ele>323.2</ele>
        <time>2017-12-13T13:08:25Z</time>
      </trkpt>
      <trkpt lat="43.47889" lon="5.97005">
        <ele>323.5</ele>
        <time>2017-12-13T13:08:33Z</time>
      </trkpt>
      <trkpt lat="43.47884" lon="5.96994">
        <ele>323.7</ele>
        <time>2017-12-13T13:08:42Z</time>
      </trkpt>
      <trkpt lat="43.47877" lon="5.96985">
        <ele>323.7</ele>
        <time>2017-12-13T13:08:48Z</time>
      </trkpt>
      <trkpt lat="43.47869" lon="5.96977">
        <ele>323.8</ele>
        <time>2017-12-13T13:08:56Z</time>
      </trkpt>
      <trkpt lat="43.47862" lon="5.96968">
        <ele>323.8</ele>
        <time>2017-12-13T13:09:02Z</time>
      </trkpt>
      <trkpt lat="43.47853" lon="5.96963">
        <ele>323.9</ele>
        <time>2017-12-13T13:09:11Z</time>
      </trkpt>
      <trkpt lat="43.47845" lon="5.96955">
        <ele>324</ele>
        <time>2017-12-13T13:09:20Z</time>
      </trkpt>
      <trkpt lat="43.47839" lon="5.96945">
        <ele>323.8</ele>
        <time>2017-12-13T13:09:28Z</time>
      </trkpt>
      <trkpt lat="43.47834" lon="5.96935">
        <ele>323.6</ele>
        <time>2017-12-13T13:09:36Z</time>
      </trkpt>
      <trkpt lat="43.4783" lon="5.96923">
        <ele>323.5</ele>
        <time>2017-12-13T13:09:46Z</time>
      </trkpt>
      <trkpt lat="43.4783" lon="5.96909">
        <ele>323.4</ele>
        <time>2017-12-13T13:09:53Z</time>
      </trkpt>
      <trkpt lat="43.47829" lon="5.96896">
        <ele>323.2</ele>
        <time>2017-12-13T13:10:02Z</time>
      </trkpt>
      <trkpt lat="43.47822" lon="5.96887">
        <ele>322.4</ele>
        <time>2017-12-13T13:10:23Z</time>
      </trkpt>
      <trkpt lat="43.47814" lon="5.96892">
        <ele>322.5</ele>
        <time>2017-12-13T13:10:35Z</time>
      </trkpt>
      <trkpt lat="43.47805" lon="5.96893">
        <ele>323.4</ele>
        <time>2017-12-13T13:10:49Z</time>
      </trkpt>
      <trkpt lat="43.47796" lon="5.96893">
        <ele>324</ele>
        <time>2017-12-13T13:11:02Z</time>
      </trkpt>
      <trkpt lat="43.47786" lon="5.96896">
        <ele>324.2</ele>
        <time>2017-12-13T13:11:15Z</time>
      </trkpt>
      <trkpt lat="43.47776" lon="5.96899">
        <ele>324.3</ele>
        <time>2017-12-13T13:11:25Z</time>
      </trkpt>
      <trkpt lat="43.47768" lon="5.96906">
        <ele>324.6</ele>
        <time>2017-12-13T13:11:38Z</time>
      </trkpt>
      <trkpt lat="43.4776" lon="5.96912">
        <ele>325.3</ele>
        <time>2017-12-13T13:11:49Z</time>
      </trkpt>
      <trkpt lat="43.47751" lon="5.96918">
        <ele>326</ele>
        <time>2017-12-13T13:11:58Z</time>
      </trkpt>
      <trkpt lat="43.47743" lon="5.96925">
        <ele>326.7</ele>
        <time>2017-12-13T13:12:08Z</time>
      </trkpt>
      <trkpt lat="43.47736" lon="5.96932">
        <ele>327.5</ele>
        <time>2017-12-13T13:12:18Z</time>
      </trkpt>
      <trkpt lat="43.47727" lon="5.96938">
        <ele>328.2</ele>
        <time>2017-12-13T13:12:30Z</time>
      </trkpt>
      <trkpt lat="43.47718" lon="5.9694">
        <ele>329.1</ele>
        <time>2017-12-13T13:12:42Z</time>
      </trkpt>
      <trkpt lat="43.47709" lon="5.96939">
        <ele>330.4</ele>
        <time>2017-12-13T13:12:58Z</time>
      </trkpt>
      <trkpt lat="43.47699" lon="5.96941">
        <ele>331.3</ele>
        <time>2017-12-13T13:13:09Z</time>
      </trkpt>
      <trkpt lat="43.4769" lon="5.96943">
        <ele>332</ele>
        <time>2017-12-13T13:13:20Z</time>
      </trkpt>
      <trkpt lat="43.4768" lon="5.96948">
        <ele>332.7</ele>
        <time>2017-12-13T13:13:30Z</time>
      </trkpt>
      <trkpt lat="43.47671" lon="5.96952">
        <ele>333.3</ele>
        <time>2017-12-13T13:13:40Z</time>
      </trkpt>
      <trkpt lat="43.47662" lon="5.96954">
        <ele>333.7</ele>
        <time>2017-12-13T13:13:50Z</time>
      </trkpt>
      <trkpt lat="43.47654" lon="5.96959">
        <ele>333.9</ele>
        <time>2017-12-13T13:13:59Z</time>
      </trkpt>
      <trkpt lat="43.47645" lon="5.96965">
        <ele>334.3</ele>
        <time>2017-12-13T13:14:10Z</time>
      </trkpt>
      <trkpt lat="43.47636" lon="5.9697">
        <ele>334.6</ele>
        <time>2017-12-13T13:14:22Z</time>
      </trkpt>
      <trkpt lat="43.47627" lon="5.96975">
        <ele>334.8</ele>
        <time>2017-12-13T13:14:31Z</time>
      </trkpt>
      <trkpt lat="43.47618" lon="5.96977">
        <ele>335.1</ele>
        <time>2017-12-13T13:14:42Z</time>
      </trkpt>
      <trkpt lat="43.47608" lon="5.96976">
        <ele>335.4</ele>
        <time>2017-12-13T13:14:52Z</time>
      </trkpt>
      <trkpt lat="43.47599" lon="5.96976">
        <ele>335.6</ele>
        <time>2017-12-13T13:15:02Z</time>
      </trkpt>
      <trkpt lat="43.47589" lon="5.96976">
        <ele>335.8</ele>
        <time>2017-12-13T13:15:11Z</time>
      </trkpt>
      <trkpt lat="43.47579" lon="5.96978">
        <ele>336</ele>
        <time>2017-12-13T13:15:22Z</time>
      </trkpt>
      <trkpt lat="43.47573" lon="5.96988">
        <ele>336.3</ele>
        <time>2017-12-13T13:15:33Z</time>
      </trkpt>
      <trkpt lat="43.47568" lon="5.96999">
        <ele>336.5</ele>
        <time>2017-12-13T13:15:44Z</time>
      </trkpt>
      <trkpt lat="43.47559" lon="5.96996">
        <ele>336.7</ele>
        <time>2017-12-13T13:16:44Z</time>
      </trkpt>
      <trkpt lat="43.4755" lon="5.9699">
        <ele>336.3</ele>
        <time>2017-12-13T13:16:53Z</time>
      </trkpt>
      <trkpt lat="43.47541" lon="5.96984">
        <ele>336.1</ele>
        <time>2017-12-13T13:16:59Z</time>
      </trkpt>
      <trkpt lat="43.47531" lon="5.96982">
        <ele>336</ele>
        <time>2017-12-13T13:17:06Z</time>
      </trkpt>
      <trkpt lat="43.47523" lon="5.96991">
        <ele>335.9</ele>
        <time>2017-12-13T13:17:16Z</time>
      </trkpt>
      <trkpt lat="43.47519" lon="5.97002">
        <ele>335.4</ele>
        <time>2017-12-13T13:17:24Z</time>
      </trkpt>
      <trkpt lat="43.47509" lon="5.97005">
        <ele>335</ele>
        <time>2017-12-13T13:17:32Z</time>
      </trkpt>
      <trkpt lat="43.475" lon="5.97008">
        <ele>334.3</ele>
        <time>2017-12-13T13:17:41Z</time>
      </trkpt>
      <trkpt lat="43.47491" lon="5.97013">
        <ele>333.7</ele>
        <time>2017-12-13T13:17:48Z</time>
      </trkpt>
      <trkpt lat="43.47481" lon="5.97011">
        <ele>332.4</ele>
        <time>2017-12-13T13:17:58Z</time>
      </trkpt>
      <trkpt lat="43.47474" lon="5.97004">
        <ele>331.5</ele>
        <time>2017-12-13T13:18:04Z</time>
      </trkpt>
      <trkpt lat="43.47468" lon="5.96992">
        <ele>330.7</ele>
        <time>2017-12-13T13:18:13Z</time>
      </trkpt>
      <trkpt lat="43.47461" lon="5.96984">
        <ele>330.2</ele>
        <time>2017-12-13T13:18:24Z</time>
      </trkpt>
      <trkpt lat="43.47455" lon="5.96972">
        <ele>329.8</ele>
        <time>2017-12-13T13:18:32Z</time>
      </trkpt>
      <trkpt lat="43.47452" lon="5.9696">
        <ele>329.3</ele>
        <time>2017-12-13T13:18:41Z</time>
      </trkpt>
      <trkpt lat="43.47444" lon="5.96952">
        <ele>327.9</ele>
        <time>2017-12-13T13:18:52Z</time>
      </trkpt>
      <trkpt lat="43.47438" lon="5.96941">
        <ele>326.8</ele>
        <time>2017-12-13T13:18:59Z</time>
      </trkpt>
      <trkpt lat="43.47429" lon="5.96937">
        <ele>326</ele>
        <time>2017-12-13T13:19:07Z</time>
      </trkpt>
      <trkpt lat="43.47421" lon="5.96932">
        <ele>325.5</ele>
        <time>2017-12-13T13:19:15Z</time>
      </trkpt>
      <trkpt lat="43.47411" lon="5.96925">
        <ele>325.5</ele>
        <time>2017-12-13T13:19:23Z</time>
      </trkpt>
      <trkpt lat="43.47402" lon="5.9692">
        <ele>325.3</ele>
        <time>2017-12-13T13:19:30Z</time>
      </trkpt>
      <trkpt lat="43.47395" lon="5.9691">
        <ele>325.2</ele>
        <time>2017-12-13T13:19:37Z</time>
      </trkpt>
      <trkpt lat="43.47385" lon="5.96909">
        <ele>325.2</ele>
        <time>2017-12-13T13:19:47Z</time>
      </trkpt>
      <trkpt lat="43.47376" lon="5.96907">
        <ele>325.3</ele>
        <time>2017-12-13T13:19:56Z</time>
      </trkpt>
      <trkpt lat="43.47368" lon="5.969">
        <ele>325.4</ele>
        <time>2017-12-13T13:20:05Z</time>
      </trkpt>
      <trkpt lat="43.47361" lon="5.96892">
        <ele>325</ele>
        <time>2017-12-13T13:20:12Z</time>
      </trkpt>
      <trkpt lat="43.47353" lon="5.96883">
        <ele>324.6</ele>
        <time>2017-12-13T13:20:25Z</time>
      </trkpt>
      <trkpt lat="43.47355" lon="5.9687">
        <ele>324.4</ele>
        <time>2017-12-13T13:20:35Z</time>
      </trkpt>
      <trkpt lat="43.47361" lon="5.96859">
        <ele>324.1</ele>
        <time>2017-12-13T13:20:45Z</time>
      </trkpt>
      <trkpt lat="43.4736" lon="5.96845">
        <ele>323.9</ele>
        <time>2017-12-13T13:20:55Z</time>
      </trkpt>
      <trkpt lat="43.47361" lon="5.96833">
        <ele>323.6</ele>
        <time>2017-12-13T13:21:04Z</time>
      </trkpt>
      <trkpt lat="43.47362" lon="5.9682">
        <ele>323</ele>
        <time>2017-12-13T13:21:12Z</time>
      </trkpt>
      <trkpt lat="43.47369" lon="5.9681">
        <ele>322.3</ele>
        <time>2017-12-13T13:21:19Z</time>
      </trkpt>
      <trkpt lat="43.47371" lon="5.96797">
        <ele>321.3</ele>
        <time>2017-12-13T13:21:27Z</time>
      </trkpt>
      <trkpt lat="43.47371" lon="5.96785">
        <ele>320.3</ele>
        <time>2017-12-13T13:21:36Z</time>
      </trkpt>
      <trkpt lat="43.47373" lon="5.96772">
        <ele>319.5</ele>
        <time>2017-12-13T13:21:43Z</time>
      </trkpt>
      <trkpt lat="43.47374" lon="5.9676">
        <ele>318.5</ele>
        <time>2017-12-13T13:21:50Z</time>
      </trkpt>
      <trkpt lat="43.47378" lon="5.96747">
        <ele>317.7</ele>
        <time>2017-12-13T13:21:57Z</time>
      </trkpt>
      <trkpt lat="43.4738" lon="5.96735">
        <ele>317</ele>
        <time>2017-12-13T13:22:03Z</time>
      </trkpt>
      <trkpt lat="43.47379" lon="5.96722">
        <ele>316</ele>
        <time>2017-12-13T13:22:13Z</time>
      </trkpt>
      <trkpt lat="43.47379" lon="5.9671">
        <ele>315.1</ele>
        <time>2017-12-13T13:22:22Z</time>
      </trkpt>
      <trkpt lat="43.4738" lon="5.96697">
        <ele>314.3</ele>
        <time>2017-12-13T13:22:30Z</time>
      </trkpt>
      <trkpt lat="43.47381" lon="5.96684">
        <ele>313.8</ele>
        <time>2017-12-13T13:22:38Z</time>
      </trkpt>
      <trkpt lat="43.47381" lon="5.96669">
        <ele>313.3</ele>
        <time>2017-12-13T13:22:46Z</time>
      </trkpt>
      <trkpt lat="43.47382" lon="5.96657">
        <ele>312.8</ele>
        <time>2017-12-13T13:22:54Z</time>
      </trkpt>
      <trkpt lat="43.47382" lon="5.96644">
        <ele>312.2</ele>
        <time>2017-12-13T13:23:02Z</time>
      </trkpt>
      <trkpt lat="43.47382" lon="5.96631">
        <ele>311.4</ele>
        <time>2017-12-13T13:23:10Z</time>
      </trkpt>
      <trkpt lat="43.47387" lon="5.96621">
        <ele>310.8</ele>
        <time>2017-12-13T13:23:17Z</time>
      </trkpt>
      <trkpt lat="43.47388" lon="5.96608">
        <ele>310.4</ele>
        <time>2017-12-13T13:23:25Z</time>
      </trkpt>
      <trkpt lat="43.47388" lon="5.96595">
        <ele>310.1</ele>
        <time>2017-12-13T13:23:35Z</time>
      </trkpt>
      <trkpt lat="43.47392" lon="5.96582">
        <ele>309.8</ele>
        <time>2017-12-13T13:23:43Z</time>
      </trkpt>
      <trkpt lat="43.47395" lon="5.9657">
        <ele>309.2</ele>
        <time>2017-12-13T13:24:01Z</time>
      </trkpt>
      <trkpt lat="43.47393" lon="5.96557">
        <ele>308.8</ele>
        <time>2017-12-13T13:24:14Z</time>
      </trkpt>
      <trkpt lat="43.47393" lon="5.96545">
        <ele>307.9</ele>
        <time>2017-12-13T13:25:13Z</time>
      </trkpt>
      <trkpt lat="43.47384" lon="5.96545">
        <ele>307.9</ele>
        <time>2017-12-13T13:25:55Z</time>
      </trkpt>
      <trkpt lat="43.47374" lon="5.96544">
        <ele>307.8</ele>
        <time>2017-12-13T13:26:06Z</time>
      </trkpt>
      <trkpt lat="43.47365" lon="5.96541">
        <ele>307.3</ele>
        <time>2017-12-13T13:26:14Z</time>
      </trkpt>
      <trkpt lat="43.47355" lon="5.96541">
        <ele>306.9</ele>
        <time>2017-12-13T13:26:22Z</time>
      </trkpt>
      <trkpt lat="43.47346" lon="5.96537">
        <ele>306.5</ele>
        <time>2017-12-13T13:26:32Z</time>
      </trkpt>
      <trkpt lat="43.47336" lon="5.96534">
        <ele>306</ele>
        <time>2017-12-13T13:26:43Z</time>
      </trkpt>
      <trkpt lat="43.47327" lon="5.9653">
        <ele>305.4</ele>
        <time>2017-12-13T13:26:52Z</time>
      </trkpt>
      <trkpt lat="43.4732" lon="5.96522">
        <ele>304.7</ele>
        <time>2017-12-13T13:27:01Z</time>
      </trkpt>
      <trkpt lat="43.47311" lon="5.96518">
        <ele>304.1</ele>
        <time>2017-12-13T13:27:09Z</time>
      </trkpt>
      <trkpt lat="43.47306" lon="5.96507">
        <ele>302.9</ele>
        <time>2017-12-13T13:27:21Z</time>
      </trkpt>
      <trkpt lat="43.47307" lon="5.96494">
        <ele>301.8</ele>
        <time>2017-12-13T13:27:33Z</time>
      </trkpt>
      <trkpt lat="43.47309" lon="5.9648">
        <ele>300.7</ele>
        <time>2017-12-13T13:27:43Z</time>
      </trkpt>
      <trkpt lat="43.47305" lon="5.96469">
        <ele>299.6</ele>
        <time>2017-12-13T13:27:51Z</time>
      </trkpt>
      <trkpt lat="43.47299" lon="5.9646">
        <ele>298.5</ele>
        <time>2017-12-13T13:28:01Z</time>
      </trkpt>
      <trkpt lat="43.47292" lon="5.96451">
        <ele>298</ele>
        <time>2017-12-13T13:28:09Z</time>
      </trkpt>
      <trkpt lat="43.47286" lon="5.96442">
        <ele>297.6</ele>
        <time>2017-12-13T13:28:17Z</time>
      </trkpt>
      <trkpt lat="43.47278" lon="5.96434">
        <ele>297.2</ele>
        <time>2017-12-13T13:28:26Z</time>
      </trkpt>
      <trkpt lat="43.4727" lon="5.96429">
        <ele>297</ele>
        <time>2017-12-13T13:28:34Z</time>
      </trkpt>
      <trkpt lat="43.47262" lon="5.96422">
        <ele>296.9</ele>
        <time>2017-12-13T13:28:42Z</time>
      </trkpt>
      <trkpt lat="43.47253" lon="5.96416">
        <ele>296.9</ele>
        <time>2017-12-13T13:28:52Z</time>
      </trkpt>
      <trkpt lat="43.47245" lon="5.96409">
        <ele>296.9</ele>
        <time>2017-12-13T13:29:00Z</time>
      </trkpt>
      <trkpt lat="43.47236" lon="5.96403">
        <ele>297.1</ele>
        <time>2017-12-13T13:29:09Z</time>
      </trkpt>
      <trkpt lat="43.47228" lon="5.96396">
        <ele>297.3</ele>
        <time>2017-12-13T13:29:19Z</time>
      </trkpt>
      <trkpt lat="43.47219" lon="5.96389">
        <ele>297.6</ele>
        <time>2017-12-13T13:29:29Z</time>
      </trkpt>
      <trkpt lat="43.4721" lon="5.96388">
        <ele>297.7</ele>
        <time>2017-12-13T13:29:38Z</time>
      </trkpt>
      <trkpt lat="43.47204" lon="5.96397">
        <ele>298.1</ele>
        <time>2017-12-13T13:29:47Z</time>
      </trkpt>
      <trkpt lat="43.47201" lon="5.96409">
        <ele>298.5</ele>
        <time>2017-12-13T13:29:56Z</time>
      </trkpt>
      <trkpt lat="43.47198" lon="5.96423">
        <ele>299</ele>
        <time>2017-12-13T13:30:07Z</time>
      </trkpt>
      <trkpt lat="43.47196" lon="5.96435">
        <ele>299.2</ele>
        <time>2017-12-13T13:30:16Z</time>
      </trkpt>
      <trkpt lat="43.47195" lon="5.96449">
        <ele>299.6</ele>
        <time>2017-12-13T13:30:26Z</time>
      </trkpt>
      <trkpt lat="43.47191" lon="5.9646">
        <ele>300.2</ele>
        <time>2017-12-13T13:30:36Z</time>
      </trkpt>
      <trkpt lat="43.47187" lon="5.96472">
        <ele>301.3</ele>
        <time>2017-12-13T13:30:46Z</time>
      </trkpt>
      <trkpt lat="43.47186" lon="5.96485">
        <ele>302.4</ele>
        <time>2017-12-13T13:30:57Z</time>
      </trkpt>
      <trkpt lat="43.4719" lon="5.96496">
        <ele>303.8</ele>
        <time>2017-12-13T13:31:10Z</time>
      </trkpt>
      <trkpt lat="43.47193" lon="5.9651">
        <ele>304.6</ele>
        <time>2017-12-13T13:31:21Z</time>
      </trkpt>
      <trkpt lat="43.47196" lon="5.96522">
        <ele>305.6</ele>
        <time>2017-12-13T13:31:33Z</time>
      </trkpt>
      <trkpt lat="43.47199" lon="5.96535">
        <ele>306.4</ele>
        <time>2017-12-13T13:31:44Z</time>
      </trkpt>
      <trkpt lat="43.47203" lon="5.96547">
        <ele>307.1</ele>
        <time>2017-12-13T13:31:53Z</time>
      </trkpt>
      <trkpt lat="43.47205" lon="5.96559">
        <ele>307.7</ele>
        <time>2017-12-13T13:32:02Z</time>
      </trkpt>
      <trkpt lat="43.47206" lon="5.96572">
        <ele>308</ele>
        <time>2017-12-13T13:32:09Z</time>
      </trkpt>
      <trkpt lat="43.47203" lon="5.96584">
        <ele>308.7</ele>
        <time>2017-12-13T13:32:18Z</time>
      </trkpt>
      <trkpt lat="43.47198" lon="5.96596">
        <ele>309.1</ele>
        <time>2017-12-13T13:32:29Z</time>
      </trkpt>
      <trkpt lat="43.47193" lon="5.96607">
        <ele>309.4</ele>
        <time>2017-12-13T13:32:40Z</time>
      </trkpt>
      <trkpt lat="43.4719" lon="5.96619">
        <ele>310</ele>
        <time>2017-12-13T13:32:52Z</time>
      </trkpt>
      <trkpt lat="43.47185" lon="5.96631">
        <ele>310.4</ele>
        <time>2017-12-13T13:33:02Z</time>
      </trkpt>
      <trkpt lat="43.47181" lon="5.96643">
        <ele>311</ele>
        <time>2017-12-13T13:33:11Z</time>
      </trkpt>
      <trkpt lat="43.47176" lon="5.96655">
        <ele>312.1</ele>
        <time>2017-12-13T13:33:22Z</time>
      </trkpt>
      <trkpt lat="43.47171" lon="5.96666">
        <ele>313.8</ele>
        <time>2017-12-13T13:33:36Z</time>
      </trkpt>
      <trkpt lat="43.47166" lon="5.96677">
        <ele>315</ele>
        <time>2017-12-13T13:33:47Z</time>
      </trkpt>
      <trkpt lat="43.47162" lon="5.9669">
        <ele>316.7</ele>
        <time>2017-12-13T13:34:00Z</time>
      </trkpt>
      <trkpt lat="43.47154" lon="5.96698">
        <ele>317.6</ele>
        <time>2017-12-13T13:34:10Z</time>
      </trkpt>
      <trkpt lat="43.47145" lon="5.96703">
        <ele>318.7</ele>
        <time>2017-12-13T13:34:20Z</time>
      </trkpt>
      <trkpt lat="43.47136" lon="5.96706">
        <ele>320.2</ele>
        <time>2017-12-13T13:34:34Z</time>
      </trkpt>
      <trkpt lat="43.47126" lon="5.96709">
        <ele>320.9</ele>
        <time>2017-12-13T13:34:51Z</time>
      </trkpt>
      <trkpt lat="43.4712" lon="5.96718">
        <ele>321.4</ele>
        <time>2017-12-13T13:35:25Z</time>
      </trkpt>
      <trkpt lat="43.47114" lon="5.96727">
        <ele>321.6</ele>
        <time>2017-12-13T13:35:40Z</time>
      </trkpt>
      <trkpt lat="43.47108" lon="5.96738">
        <ele>321.7</ele>
        <time>2017-12-13T13:35:49Z</time>
      </trkpt>
      <trkpt lat="43.47102" lon="5.96748">
        <ele>321.7</ele>
        <time>2017-12-13T13:35:58Z</time>
      </trkpt>
      <trkpt lat="43.47096" lon="5.96758">
        <ele>321.7</ele>
        <time>2017-12-13T13:36:06Z</time>
      </trkpt>
      <trkpt lat="43.47092" lon="5.9677">
        <ele>321.9</ele>
        <time>2017-12-13T13:36:32Z</time>
      </trkpt>
      <trkpt lat="43.47085" lon="5.9678">
        <ele>321.9</ele>
        <time>2017-12-13T13:36:43Z</time>
      </trkpt>
      <trkpt lat="43.4708" lon="5.9679">
        <ele>322.3</ele>
        <time>2017-12-13T13:36:54Z</time>
      </trkpt>
      <trkpt lat="43.47074" lon="5.96801">
        <ele>323.2</ele>
        <time>2017-12-13T13:37:07Z</time>
      </trkpt>
      <trkpt lat="43.47065" lon="5.96807">
        <ele>323.8</ele>
        <time>2017-12-13T13:37:17Z</time>
      </trkpt>
      <trkpt lat="43.47058" lon="5.96814">
        <ele>324.7</ele>
        <time>2017-12-13T13:37:28Z</time>
      </trkpt>
      <trkpt lat="43.47049" lon="5.9682">
        <ele>325.6</ele>
        <time>2017-12-13T13:37:39Z</time>
      </trkpt>
      <trkpt lat="43.47041" lon="5.96824">
        <ele>326.3</ele>
        <time>2017-12-13T13:37:47Z</time>
      </trkpt>
      <trkpt lat="43.47031" lon="5.96824">
        <ele>326.8</ele>
        <time>2017-12-13T13:37:56Z</time>
      </trkpt>
      <trkpt lat="43.47022" lon="5.96824">
        <ele>327.1</ele>
        <time>2017-12-13T13:38:05Z</time>
      </trkpt>
      <trkpt lat="43.47015" lon="5.96833">
        <ele>327.5</ele>
        <time>2017-12-13T13:38:15Z</time>
      </trkpt>
      <trkpt lat="43.47014" lon="5.96845">
        <ele>327.7</ele>
        <time>2017-12-13T13:38:24Z</time>
      </trkpt>
      <trkpt lat="43.47017" lon="5.96859">
        <ele>328</ele>
        <time>2017-12-13T13:38:36Z</time>
      </trkpt>
      <trkpt lat="43.47016" lon="5.96872">
        <ele>328.1</ele>
        <time>2017-12-13T13:38:43Z</time>
      </trkpt>
      <trkpt lat="43.47019" lon="5.96885">
        <ele>328.2</ele>
        <time>2017-12-13T13:38:54Z</time>
      </trkpt>
      <trkpt lat="43.47023" lon="5.96896">
        <ele>329.2</ele>
        <time>2017-12-13T13:39:37Z</time>
      </trkpt>
      <trkpt lat="43.47019" lon="5.96908">
        <ele>329.7</ele>
        <time>2017-12-13T13:39:48Z</time>
      </trkpt>
      <trkpt lat="43.47014" lon="5.96922">
        <ele>330.2</ele>
        <time>2017-12-13T13:39:58Z</time>
      </trkpt>
      <trkpt lat="43.47009" lon="5.96933">
        <ele>331</ele>
        <time>2017-12-13T13:40:06Z</time>
      </trkpt>
      <trkpt lat="43.47005" lon="5.96946">
        <ele>331.9</ele>
        <time>2017-12-13T13:40:18Z</time>
      </trkpt>
      <trkpt lat="43.46998" lon="5.96955">
        <ele>332.8</ele>
        <time>2017-12-13T13:40:29Z</time>
      </trkpt>
      <trkpt lat="43.46989" lon="5.9696">
        <ele>333.7</ele>
        <time>2017-12-13T13:40:42Z</time>
      </trkpt>
      <trkpt lat="43.4698" lon="5.9696">
        <ele>336.1</ele>
        <time>2017-12-13T13:41:05Z</time>
      </trkpt>
      <trkpt lat="43.46971" lon="5.96966">
        <ele>337.6</ele>
        <time>2017-12-13T13:41:15Z</time>
      </trkpt>
      <trkpt lat="43.46961" lon="5.96969">
        <ele>339.1</ele>
        <time>2017-12-13T13:41:28Z</time>
      </trkpt>
      <trkpt lat="43.46952" lon="5.96973">
        <ele>339.6</ele>
        <time>2017-12-13T13:41:36Z</time>
      </trkpt>
      <trkpt lat="43.46943" lon="5.96971">
        <ele>340.3</ele>
        <time>2017-12-13T13:41:48Z</time>
      </trkpt>
      <trkpt lat="43.46933" lon="5.96968">
        <ele>341.1</ele>
        <time>2017-12-13T13:42:01Z</time>
      </trkpt>
      <trkpt lat="43.46925" lon="5.96961">
        <ele>341.9</ele>
        <time>2017-12-13T13:42:10Z</time>
      </trkpt>
      <trkpt lat="43.46916" lon="5.96956">
        <ele>342.8</ele>
        <time>2017-12-13T13:42:22Z</time>
      </trkpt>
      <trkpt lat="43.46907" lon="5.96952">
        <ele>343.3</ele>
        <time>2017-12-13T13:42:31Z</time>
      </trkpt>
      <trkpt lat="43.46898" lon="5.96949">
        <ele>343.7</ele>
        <time>2017-12-13T13:42:39Z</time>
      </trkpt>
      <trkpt lat="43.46889" lon="5.96946">
        <ele>344.7</ele>
        <time>2017-12-13T13:42:53Z</time>
      </trkpt>
      <trkpt lat="43.4688" lon="5.96945">
        <ele>345.7</ele>
        <time>2017-12-13T13:43:05Z</time>
      </trkpt>
      <trkpt lat="43.46871" lon="5.96942">
        <ele>347</ele>
        <time>2017-12-13T13:43:16Z</time>
      </trkpt>
      <trkpt lat="43.46862" lon="5.96936">
        <ele>348</ele>
        <time>2017-12-13T13:43:27Z</time>
      </trkpt>
      <trkpt lat="43.46853" lon="5.96928">
        <ele>348.6</ele>
        <time>2017-12-13T13:43:38Z</time>
      </trkpt>
      <trkpt lat="43.46844" lon="5.96924">
        <ele>349.1</ele>
        <time>2017-12-13T13:43:46Z</time>
      </trkpt>
      <trkpt lat="43.46835" lon="5.96925">
        <ele>349.6</ele>
        <time>2017-12-13T13:44:01Z</time>
      </trkpt>
      <trkpt lat="43.46825" lon="5.96927">
        <ele>350</ele>
        <time>2017-12-13T13:44:14Z</time>
      </trkpt>
      <trkpt lat="43.46816" lon="5.96924">
        <ele>350.4</ele>
        <time>2017-12-13T13:44:23Z</time>
      </trkpt>
      <trkpt lat="43.46807" lon="5.9692">
        <ele>351.1</ele>
        <time>2017-12-13T13:44:34Z</time>
      </trkpt>
      <trkpt lat="43.46799" lon="5.96913">
        <ele>352.2</ele>
        <time>2017-12-13T13:44:45Z</time>
      </trkpt>
      <trkpt lat="43.4679" lon="5.96912">
        <ele>354</ele>
        <time>2017-12-13T13:45:20Z</time>
      </trkpt>
      <trkpt lat="43.46782" lon="5.96918">
        <ele>354.3</ele>
        <time>2017-12-13T13:45:38Z</time>
      </trkpt>
      <trkpt lat="43.46778" lon="5.96906">
        <ele>356.2</ele>
        <time>2017-12-13T13:46:05Z</time>
      </trkpt>
      <trkpt lat="43.46776" lon="5.96894">
        <ele>358</ele>
        <time>2017-12-13T13:46:29Z</time>
      </trkpt>
      <trkpt lat="43.46768" lon="5.96888">
        <ele>359.5</ele>
        <time>2017-12-13T13:46:44Z</time>
      </trkpt>
      <trkpt lat="43.46764" lon="5.96876">
        <ele>362</ele>
        <time>2017-12-13T13:47:02Z</time>
      </trkpt>
      <trkpt lat="43.46769" lon="5.96866">
        <ele>363.6</ele>
        <time>2017-12-13T13:47:16Z</time>
      </trkpt>
      <trkpt lat="43.46762" lon="5.96858">
        <ele>365</ele>
        <time>2017-12-13T13:47:30Z</time>
      </trkpt>
      <trkpt lat="43.46763" lon="5.96845">
        <ele>366.1</ele>
        <time>2017-12-13T13:47:49Z</time>
      </trkpt>
      <trkpt lat="43.46758" lon="5.96835">
        <ele>367.3</ele>
        <time>2017-12-13T13:48:07Z</time>
      </trkpt>
      <trkpt lat="43.46749" lon="5.9683">
        <ele>368.7</ele>
        <time>2017-12-13T13:48:20Z</time>
      </trkpt>
      <trkpt lat="43.4674" lon="5.96825">
        <ele>369.7</ele>
        <time>2017-12-13T13:48:30Z</time>
      </trkpt>
      <trkpt lat="43.46731" lon="5.96823">
        <ele>371.9</ele>
        <time>2017-12-13T13:49:29Z</time>
      </trkpt>
      <trkpt lat="43.46724" lon="5.96815">
        <ele>372.2</ele>
        <time>2017-12-13T13:50:01Z</time>
      </trkpt>
      <trkpt lat="43.46721" lon="5.96801">
        <ele>371.6</ele>
        <time>2017-12-13T13:50:12Z</time>
      </trkpt>
      <trkpt lat="43.46721" lon="5.96788">
        <ele>370.5</ele>
        <time>2017-12-13T13:50:21Z</time>
      </trkpt>
      <trkpt lat="43.46716" lon="5.96778">
        <ele>368.8</ele>
        <time>2017-12-13T13:50:33Z</time>
      </trkpt>
      <trkpt lat="43.46713" lon="5.96765">
        <ele>367.7</ele>
        <time>2017-12-13T13:50:45Z</time>
      </trkpt>
      <trkpt lat="43.46708" lon="5.96754">
        <ele>366.2</ele>
        <time>2017-12-13T13:50:55Z</time>
      </trkpt>
      <trkpt lat="43.46702" lon="5.96744">
        <ele>364.8</ele>
        <time>2017-12-13T13:51:04Z</time>
      </trkpt>
      <trkpt lat="43.46698" lon="5.96732">
        <ele>363.1</ele>
        <time>2017-12-13T13:51:21Z</time>
      </trkpt>
      <trkpt lat="43.46695" lon="5.9672">
        <ele>361.3</ele>
        <time>2017-12-13T13:51:35Z</time>
      </trkpt>
      <trkpt lat="43.46692" lon="5.96708">
        <ele>359.6</ele>
        <time>2017-12-13T13:51:46Z</time>
      </trkpt>
      <trkpt lat="43.46691" lon="5.96695">
        <ele>358.3</ele>
        <time>2017-12-13T13:51:55Z</time>
      </trkpt>
      <trkpt lat="43.46687" lon="5.96683">
        <ele>356.9</ele>
        <time>2017-12-13T13:52:05Z</time>
      </trkpt>
      <trkpt lat="43.46681" lon="5.96673">
        <ele>355.6</ele>
        <time>2017-12-13T13:52:14Z</time>
      </trkpt>
      <trkpt lat="43.46676" lon="5.9666">
        <ele>354.2</ele>
        <time>2017-12-13T13:52:24Z</time>
      </trkpt>
      <trkpt lat="43.46668" lon="5.96652">
        <ele>352.8</ele>
        <time>2017-12-13T13:52:34Z</time>
      </trkpt>
      <trkpt lat="43.46663" lon="5.96641">
        <ele>350.6</ele>
        <time>2017-12-13T13:52:47Z</time>
      </trkpt>
      <trkpt lat="43.46657" lon="5.96632">
        <ele>348.3</ele>
        <time>2017-12-13T13:53:00Z</time>
      </trkpt>
      <trkpt lat="43.46653" lon="5.9662">
        <ele>345.8</ele>
        <time>2017-12-13T13:53:22Z</time>
      </trkpt>
      <trkpt lat="43.46645" lon="5.96614">
        <ele>344.1</ele>
        <time>2017-12-13T13:53:36Z</time>
      </trkpt>
      <trkpt lat="43.46641" lon="5.96602">
        <ele>342.7</ele>
        <time>2017-12-13T13:53:46Z</time>
      </trkpt>
      <trkpt lat="43.46637" lon="5.96591">
        <ele>341.1</ele>
        <time>2017-12-13T13:53:56Z</time>
      </trkpt>
      <trkpt lat="43.4663" lon="5.96583">
        <ele>339.4</ele>
        <time>2017-12-13T13:54:07Z</time>
      </trkpt>
      <trkpt lat="43.46623" lon="5.96574">
        <ele>337.1</ele>
        <time>2017-12-13T13:54:21Z</time>
      </trkpt>
      <trkpt lat="43.46619" lon="5.96562">
        <ele>333.7</ele>
        <time>2017-12-13T13:54:39Z</time>
      </trkpt>
      <trkpt lat="43.46623" lon="5.96551">
        <ele>330.4</ele>
        <time>2017-12-13T13:54:59Z</time>
      </trkpt>
      <trkpt lat="43.46625" lon="5.96537">
        <ele>328.5</ele>
        <time>2017-12-13T13:55:10Z</time>
      </trkpt>
      <trkpt lat="43.46627" lon="5.96523">
        <ele>326.8</ele>
        <time>2017-12-13T13:55:19Z</time>
      </trkpt>
      <trkpt lat="43.46626" lon="5.9651">
        <ele>324.2</ele>
        <time>2017-12-13T13:55:31Z</time>
      </trkpt>
      <trkpt lat="43.46628" lon="5.96497">
        <ele>322.9</ele>
        <time>2017-12-13T13:55:39Z</time>
      </trkpt>
      <trkpt lat="43.46634" lon="5.96487">
        <ele>321.3</ele>
        <time>2017-12-13T13:55:50Z</time>
      </trkpt>
      <trkpt lat="43.46643" lon="5.9648">
        <ele>320.4</ele>
        <time>2017-12-13T13:56:01Z</time>
      </trkpt>
      <trkpt lat="43.4665" lon="5.96472">
        <ele>320</ele>
        <time>2017-12-13T13:56:10Z</time>
      </trkpt>
      <trkpt lat="43.46658" lon="5.96464">
        <ele>319.5</ele>
        <time>2017-12-13T13:56:18Z</time>
      </trkpt>
      <trkpt lat="43.46666" lon="5.96457">
        <ele>318.8</ele>
        <time>2017-12-13T13:56:26Z</time>
      </trkpt>
      <trkpt lat="43.46672" lon="5.96448">
        <ele>318.3</ele>
        <time>2017-12-13T13:56:31Z</time>
      </trkpt>
      <trkpt lat="43.46679" lon="5.9644">
        <ele>317.6</ele>
        <time>2017-12-13T13:56:39Z</time>
      </trkpt>
      <trkpt lat="43.46684" lon="5.96428">
        <ele>317</ele>
        <time>2017-12-13T13:56:47Z</time>
      </trkpt>
      <trkpt lat="43.46689" lon="5.96417">
        <ele>316.1</ele>
        <time>2017-12-13T13:56:58Z</time>
      </trkpt>
      <trkpt lat="43.46692" lon="5.96403">
        <ele>315.6</ele>
        <time>2017-12-13T13:57:08Z</time>
      </trkpt>
      <trkpt lat="43.46694" lon="5.96391">
        <ele>315</ele>
        <time>2017-12-13T13:57:19Z</time>
      </trkpt>
      <trkpt lat="43.46698" lon="5.96379">
        <ele>314.4</ele>
        <time>2017-12-13T13:57:28Z</time>
      </trkpt>
      <trkpt lat="43.46705" lon="5.9637">
        <ele>313</ele>
        <time>2017-12-13T13:57:38Z</time>
      </trkpt>
      <trkpt lat="43.46703" lon="5.96357">
        <ele>310.6</ele>
        <time>2017-12-13T13:57:52Z</time>
      </trkpt>
      <trkpt lat="43.46708" lon="5.96345">
        <ele>308.2</ele>
        <time>2017-12-13T13:58:03Z</time>
      </trkpt>
      <trkpt lat="43.46708" lon="5.96333">
        <ele>305.7</ele>
        <time>2017-12-13T13:58:15Z</time>
      </trkpt>
      <trkpt lat="43.46703" lon="5.96321">
        <ele>304</ele>
        <time>2017-12-13T13:58:24Z</time>
      </trkpt>
      <trkpt lat="43.46698" lon="5.96311">
        <ele>302.6</ele>
        <time>2017-12-13T13:58:32Z</time>
      </trkpt>
      <trkpt lat="43.4669" lon="5.96303">
        <ele>301.3</ele>
        <time>2017-12-13T13:58:41Z</time>
      </trkpt>
      <trkpt lat="43.46684" lon="5.96294">
        <ele>300.1</ele>
        <time>2017-12-13T13:58:51Z</time>
      </trkpt>
      <trkpt lat="43.46688" lon="5.96281">
        <ele>298.8</ele>
        <time>2017-12-13T13:59:02Z</time>
      </trkpt>
      <trkpt lat="43.46689" lon="5.96268">
        <ele>298.1</ele>
        <time>2017-12-13T13:59:12Z</time>
      </trkpt>
      <trkpt lat="43.46691" lon="5.96255">
        <ele>297.7</ele>
        <time>2017-12-13T13:59:23Z</time>
      </trkpt>
      <trkpt lat="43.46696" lon="5.96244">
        <ele>297.5</ele>
        <time>2017-12-13T13:59:31Z</time>
      </trkpt>
      <trkpt lat="43.46703" lon="5.96235">
        <ele>297.3</ele>
        <time>2017-12-13T13:59:41Z</time>
      </trkpt>
      <trkpt lat="43.46708" lon="5.96224">
        <ele>297.3</ele>
        <time>2017-12-13T13:59:49Z</time>
      </trkpt>
      <trkpt lat="43.46714" lon="5.96213">
        <ele>297.2</ele>
        <time>2017-12-13T13:59:59Z</time>
      </trkpt>
      <trkpt lat="43.4672" lon="5.96206">
        <ele>297.1</ele>
        <time>2017-12-13T14:03:09Z</time>
      </trkpt>
    </trkseg>
  </trk>
</gpx>